<?xml version="1.0" encoding="UTF-8"?>
<gpx version="1.1" creator="2bulu-scraper" xmlns="http://www.topografix.com/GPX/1/1">
  <metadata><name>乐山井研县</name><desc>source: 2bulu.com trackId=76342424; exported 2026-09-01T16:22:40.672Z</desc>
    <bounds minlat="29.4941725" minlon="104.0929346" maxlat="29.5130384" maxlon="104.1132546"/>
    <link href="https://www.2bulu.com/track/t-NmA3gDiwDtvp%252FR2KBg5Tzw%253D%253D.htm"><text>2bulu 源页面</text></link>
  </metadata>
  <wpt lat="29.5125546" lon="104.1088897"><ele>359</ele><name>
        </name></wpt>
  <wpt lat="29.5109411" lon="104.1096418"><ele>350</ele><name>
        </name></wpt>
  <wpt lat="29.5098656" lon="104.1098137"><ele>349</ele><name>
        </name></wpt>
  <wpt lat="29.5092115" lon="104.1080602"><ele>347</ele><name>
        </name></wpt>
  <wpt lat="29.5095211" lon="104.1063257"><ele>339</ele><name>
        </name></wpt>
  <wpt lat="29.5093563" lon="104.1033284"><ele>340</ele><name>
        </name></wpt>
  <wpt lat="29.5068994" lon="104.1036618"><ele>366</ele><name>
        </name></wpt>
  <wpt lat="29.50626" lon="104.10225"><ele>353</ele><name>
        </name></wpt>
  <wpt lat="29.5057245" lon="104.1013057"><ele>347</ele><name>
        </name></wpt>
  <wpt lat="29.5053411" lon="104.1011795"><ele>349</ele><name>
        </name></wpt>
  <wpt lat="29.5049867" lon="104.0984817"><ele>335</ele><name>
        </name></wpt>
  <wpt lat="29.505225" lon="104.0977634"><ele>337</ele><name>
        </name></wpt>
  <wpt lat="29.5066517" lon="104.0979833"><ele>333</ele><name>
        </name></wpt>
  <wpt lat="29.5070261" lon="104.0979648"><ele>339</ele><name>
        </name></wpt>
  <wpt lat="29.5073399" lon="104.097915"><ele>331</ele><name>
        </name></wpt>
  <wpt lat="29.5079521" lon="104.0974813"><ele>331</ele><name>
        </name></wpt>
  <wpt lat="29.5074465" lon="104.0973404"><ele>333</ele><name>
        </name></wpt>
  <wpt lat="29.5044191" lon="104.093988"><ele>319</ele><name>
        </name></wpt>
  <wpt lat="29.5046067" lon="104.0966241"><ele>334</ele><name>
        </name></wpt>
  <wpt lat="29.5029906" lon="104.0976229"><ele>333</ele><name>
        </name></wpt>
  <wpt lat="29.5020067" lon="104.0958833"><ele>324</ele><name>
        </name></wpt>
  <wpt lat="29.5001446" lon="104.0969829"><ele>320</ele><name>
        </name></wpt>
  <wpt lat="29.4994324" lon="104.0958473"><ele>315</ele><name>
        </name></wpt>
  <wpt lat="29.4975525" lon="104.0956582"><ele>331</ele><name>
        </name></wpt>
  <wpt lat="29.4962142" lon="104.0971279"><ele>318</ele><name>
        </name></wpt>
  <wpt lat="29.496099" lon="104.098196"><ele>349</ele><name>
        </name></wpt>
  <wpt lat="29.4961753" lon="104.098261"><ele>347</ele><name>
        </name></wpt>
  <wpt lat="29.4974855" lon="104.0998671"><ele>363</ele><name>
        </name></wpt>
  <trk><name>乐山井研县</name>
      <trkseg>
        <trkpt lat="29.5122017" lon="104.1088133"><ele>360.3</ele><time>2025-12-18T17:39:21.000Z</time></trkpt>
        <trkpt lat="29.5122751" lon="104.1087783"><ele>360.3</ele><time>2025-12-18T17:39:47.000Z</time></trkpt>
        <trkpt lat="29.5123721" lon="104.108765"><ele>359.57</ele><time>2025-12-18T17:39:59.000Z</time></trkpt>
        <trkpt lat="29.512473" lon="104.1087968"><ele>361</ele><time>2025-12-18T17:40:11.000Z</time></trkpt>
        <trkpt lat="29.5125461" lon="104.1088744"><ele>361.56</ele><time>2025-12-18T17:40:21.000Z</time></trkpt>
        <trkpt lat="29.5125546" lon="104.1088897"><ele>360.59</ele><time>2025-12-18T17:40:29.000Z</time></trkpt>
        <trkpt lat="29.512496" lon="104.1089452"><ele>359.82</ele><time>2025-12-18T17:40:49.000Z</time></trkpt>
        <trkpt lat="29.5124029" lon="104.1089919"><ele>359.21</ele><time>2025-12-18T17:41:01.000Z</time></trkpt>
        <trkpt lat="29.512293" lon="104.1090203"><ele>357.96</ele><time>2025-12-18T17:41:13.000Z</time></trkpt>
        <trkpt lat="29.5122043" lon="104.1090793"><ele>356.77</ele><time>2025-12-18T17:41:23.000Z</time></trkpt>
        <trkpt lat="29.5121256" lon="104.1091555"><ele>355.84</ele><time>2025-12-18T17:41:37.000Z</time></trkpt>
        <trkpt lat="29.512035" lon="104.1092053"><ele>355.82</ele><time>2025-12-18T17:41:47.000Z</time></trkpt>
        <trkpt lat="29.5119425" lon="104.1092177"><ele>355.73</ele><time>2025-12-18T17:41:55.000Z</time></trkpt>
        <trkpt lat="29.511871" lon="104.1092908"><ele>356.27</ele><time>2025-12-18T17:42:05.000Z</time></trkpt>
        <trkpt lat="29.5117926" lon="104.1093723"><ele>356.24</ele><time>2025-12-18T17:42:19.000Z</time></trkpt>
        <trkpt lat="29.511687" lon="104.1093871"><ele>355.79</ele><time>2025-12-18T17:42:35.000Z</time></trkpt>
        <trkpt lat="29.5115738" lon="104.109386"><ele>354.94</ele><time>2025-12-18T17:42:51.000Z</time></trkpt>
        <trkpt lat="29.5114767" lon="104.109402"><ele>353.16</ele><time>2025-12-18T17:43:03.000Z</time></trkpt>
        <trkpt lat="29.5113918" lon="104.1094428"><ele>351.24</ele><time>2025-12-18T17:43:13.000Z</time></trkpt>
        <trkpt lat="29.511306" lon="104.1094818"><ele>349.55</ele><time>2025-12-18T17:43:23.000Z</time></trkpt>
        <trkpt lat="29.5112141" lon="104.1095214"><ele>348.15</ele><time>2025-12-18T17:43:31.000Z</time></trkpt>
        <trkpt lat="29.5111184" lon="104.1095658"><ele>347.35</ele><time>2025-12-18T17:43:41.000Z</time></trkpt>
        <trkpt lat="29.5110301" lon="104.1096203"><ele>348.49</ele><time>2025-12-18T17:43:55.000Z</time></trkpt>
        <trkpt lat="29.5109411" lon="104.1096418"><ele>348.45</ele><time>2025-12-18T17:44:09.000Z</time></trkpt>
        <trkpt lat="29.5108717" lon="104.109705"><ele>349.03</ele><time>2025-12-18T17:46:13.000Z</time></trkpt>
        <trkpt lat="29.5107683" lon="104.1097667"><ele>345.58</ele><time>2025-12-18T17:46:23.000Z</time></trkpt>
        <trkpt lat="29.5106678" lon="104.1097649"><ele>345.8</ele><time>2025-12-18T17:46:35.000Z</time></trkpt>
        <trkpt lat="29.5105704" lon="104.1097596"><ele>346.32</ele><time>2025-12-18T17:46:45.000Z</time></trkpt>
        <trkpt lat="29.5104676" lon="104.1097541"><ele>347.6</ele><time>2025-12-18T17:46:57.000Z</time></trkpt>
        <trkpt lat="29.5103666" lon="104.109737"><ele>350.35</ele><time>2025-12-18T17:47:09.000Z</time></trkpt>
        <trkpt lat="29.5102664" lon="104.1097303"><ele>351.79</ele><time>2025-12-18T17:47:19.000Z</time></trkpt>
        <trkpt lat="29.5101664" lon="104.1097197"><ele>352.31</ele><time>2025-12-18T17:47:31.000Z</time></trkpt>
        <trkpt lat="29.5100765" lon="104.1096715"><ele>351.75</ele><time>2025-12-18T17:47:43.000Z</time></trkpt>
        <trkpt lat="29.5099853" lon="104.1096674"><ele>351.56</ele><time>2025-12-18T17:47:53.000Z</time></trkpt>
        <trkpt lat="29.509908" lon="104.1097154"><ele>351.75</ele><time>2025-12-18T17:48:11.000Z</time></trkpt>
        <trkpt lat="29.5098656" lon="104.1098137"><ele>350.44</ele><time>2025-12-18T17:48:25.000Z</time></trkpt>
        <trkpt lat="29.5097913" lon="104.1098843"><ele>349.69</ele><time>2025-12-18T17:48:53.000Z</time></trkpt>
        <trkpt lat="29.5097292" lon="104.1098425"><ele>348.96</ele><time>2025-12-18T17:49:23.000Z</time></trkpt>
        <trkpt lat="29.5096467" lon="104.10977"><ele>348.85</ele><time>2025-12-18T17:53:37.000Z</time></trkpt>
        <trkpt lat="29.5095567" lon="104.109755"><ele>350.29</ele><time>2025-12-18T17:55:49.000Z</time></trkpt>
        <trkpt lat="29.5094583" lon="104.1097633"><ele>351.76</ele><time>2025-12-18T17:56:13.000Z</time></trkpt>
        <trkpt lat="29.5093529" lon="104.1097096"><ele>353.71</ele><time>2025-12-18T17:56:25.000Z</time></trkpt>
        <trkpt lat="29.5092592" lon="104.1096809"><ele>355.26</ele><time>2025-12-18T17:56:35.000Z</time></trkpt>
        <trkpt lat="29.5091728" lon="104.1096359"><ele>355.58</ele><time>2025-12-18T17:56:45.000Z</time></trkpt>
        <trkpt lat="29.50908" lon="104.1096064"><ele>355.28</ele><time>2025-12-18T17:56:55.000Z</time></trkpt>
        <trkpt lat="29.5089843" lon="104.1095672"><ele>355.03</ele><time>2025-12-18T17:57:05.000Z</time></trkpt>
        <trkpt lat="29.5089464" lon="104.109479"><ele>355.41</ele><time>2025-12-18T17:57:15.000Z</time></trkpt>
        <trkpt lat="29.508936" lon="104.1093633"><ele>356.74</ele><time>2025-12-18T17:57:27.000Z</time></trkpt>
        <trkpt lat="29.5089051" lon="104.109253"><ele>357.45</ele><time>2025-12-18T17:57:39.000Z</time></trkpt>
        <trkpt lat="29.5088948" lon="104.1091401"><ele>357.99</ele><time>2025-12-18T17:57:49.000Z</time></trkpt>
        <trkpt lat="29.5088915" lon="104.1090288"><ele>358.85</ele><time>2025-12-18T17:58:09.000Z</time></trkpt>
        <trkpt lat="29.5089269" lon="104.1089303"><ele>358.36</ele><time>2025-12-18T17:58:21.000Z</time></trkpt>
        <trkpt lat="29.5089615" lon="104.1088317"><ele>356.57</ele><time>2025-12-18T17:58:35.000Z</time></trkpt>
        <trkpt lat="29.5089994" lon="104.1087214"><ele>354.04</ele><time>2025-12-18T17:58:51.000Z</time></trkpt>
        <trkpt lat="29.5090446" lon="104.1086152"><ele>351.96</ele><time>2025-12-18T17:59:03.000Z</time></trkpt>
        <trkpt lat="29.5090978" lon="104.1085036"><ele>349.78</ele><time>2025-12-18T17:59:15.000Z</time></trkpt>
        <trkpt lat="29.5091218" lon="104.1083787"><ele>348.5</ele><time>2025-12-18T17:59:27.000Z</time></trkpt>
        <trkpt lat="29.5091579" lon="104.1082656"><ele>348.29</ele><time>2025-12-18T17:59:35.000Z</time></trkpt>
        <trkpt lat="29.5091983" lon="104.108154"><ele>348.29</ele><time>2025-12-18T17:59:45.000Z</time></trkpt>
        <trkpt lat="29.5092115" lon="104.1080602"><ele>348.51</ele><time>2025-12-18T18:00:05.000Z</time></trkpt>
        <trkpt lat="29.5092282" lon="104.107959"><ele>347.95</ele><time>2025-12-18T18:00:21.000Z</time></trkpt>
        <trkpt lat="29.5092612" lon="104.1078591"><ele>347.71</ele><time>2025-12-18T18:00:33.000Z</time></trkpt>
        <trkpt lat="29.5093184" lon="104.1077719"><ele>348.35</ele><time>2025-12-18T18:00:45.000Z</time></trkpt>
        <trkpt lat="29.5093812" lon="104.1076806"><ele>350.18</ele><time>2025-12-18T18:00:57.000Z</time></trkpt>
        <trkpt lat="29.509368" lon="104.1075768"><ele>351.52</ele><time>2025-12-18T18:01:05.000Z</time></trkpt>
        <trkpt lat="29.5093585" lon="104.1074634"><ele>351.3</ele><time>2025-12-18T18:01:19.000Z</time></trkpt>
        <trkpt lat="29.5093976" lon="104.1073633"><ele>350.27</ele><time>2025-12-18T18:01:33.000Z</time></trkpt>
        <trkpt lat="29.5094249" lon="104.1072626"><ele>350.41</ele><time>2025-12-18T18:01:41.000Z</time></trkpt>
        <trkpt lat="29.5094323" lon="104.1071589"><ele>350.66</ele><time>2025-12-18T18:01:55.000Z</time></trkpt>
        <trkpt lat="29.5094572" lon="104.107049"><ele>351.2</ele><time>2025-12-18T18:02:09.000Z</time></trkpt>
        <trkpt lat="29.5094631" lon="104.1069395"><ele>351.15</ele><time>2025-12-18T18:02:21.000Z</time></trkpt>
        <trkpt lat="29.5094541" lon="104.1068292"><ele>350.31</ele><time>2025-12-18T18:02:43.000Z</time></trkpt>
        <trkpt lat="29.5095044" lon="104.1067451"><ele>348.63</ele><time>2025-12-18T18:02:53.000Z</time></trkpt>
        <trkpt lat="29.5095487" lon="104.1066432"><ele>347.63</ele><time>2025-12-18T18:03:03.000Z</time></trkpt>
        <trkpt lat="29.5095769" lon="104.1065359"><ele>346.37</ele><time>2025-12-18T18:03:13.000Z</time></trkpt>
        <trkpt lat="29.5095745" lon="104.1064144"><ele>344.58</ele><time>2025-12-18T18:03:23.000Z</time></trkpt>
        <trkpt lat="29.5095211" lon="104.1063257"><ele>342.48</ele><time>2025-12-18T18:03:35.000Z</time></trkpt>
        <trkpt lat="29.5095467" lon="104.106235"><ele>340.77</ele><time>2025-12-18T18:05:05.000Z</time></trkpt>
        <trkpt lat="29.5096367" lon="104.1061767"><ele>340.35</ele><time>2025-12-18T18:05:15.000Z</time></trkpt>
        <trkpt lat="29.5096632" lon="104.1060647"><ele>339.17</ele><time>2025-12-18T18:05:29.000Z</time></trkpt>
        <trkpt lat="29.5096837" lon="104.1059498"><ele>336.94</ele><time>2025-12-18T18:06:13.000Z</time></trkpt>
        <trkpt lat="29.5096881" lon="104.1058386"><ele>337.48</ele><time>2025-12-18T18:06:35.000Z</time></trkpt>
        <trkpt lat="29.5096978" lon="104.1057245"><ele>338.61</ele><time>2025-12-18T18:06:47.000Z</time></trkpt>
        <trkpt lat="29.5096773" lon="104.1056213"><ele>339.72</ele><time>2025-12-18T18:06:57.000Z</time></trkpt>
        <trkpt lat="29.5096679" lon="104.1055112"><ele>341.56</ele><time>2025-12-18T18:07:11.000Z</time></trkpt>
        <trkpt lat="29.509657" lon="104.1053932"><ele>342.78</ele><time>2025-12-18T18:07:25.000Z</time></trkpt>
        <trkpt lat="29.5096248" lon="104.1052839"><ele>343.18</ele><time>2025-12-18T18:07:37.000Z</time></trkpt>
        <trkpt lat="29.5096252" lon="104.1051794"><ele>343.53</ele><time>2025-12-18T18:07:49.000Z</time></trkpt>
        <trkpt lat="29.5096288" lon="104.1050754"><ele>343.47</ele><time>2025-12-18T18:07:59.000Z</time></trkpt>
        <trkpt lat="29.5095963" lon="104.1049736"><ele>343.61</ele><time>2025-12-18T18:08:11.000Z</time></trkpt>
        <trkpt lat="29.5095572" lon="104.1048699"><ele>343.14</ele><time>2025-12-18T18:08:23.000Z</time></trkpt>
        <trkpt lat="29.5095187" lon="104.1047615"><ele>341.7</ele><time>2025-12-18T18:08:33.000Z</time></trkpt>
        <trkpt lat="29.5094965" lon="104.1046501"><ele>340.88</ele><time>2025-12-18T18:08:45.000Z</time></trkpt>
        <trkpt lat="29.509476" lon="104.1045416"><ele>340.2</ele><time>2025-12-18T18:08:55.000Z</time></trkpt>
        <trkpt lat="29.5094554" lon="104.1044295"><ele>339.25</ele><time>2025-12-18T18:09:05.000Z</time></trkpt>
        <trkpt lat="29.509447" lon="104.1043236"><ele>337.9</ele><time>2025-12-18T18:09:15.000Z</time></trkpt>
        <trkpt lat="29.509449" lon="104.1042113"><ele>337.81</ele><time>2025-12-18T18:09:25.000Z</time></trkpt>
        <trkpt lat="29.5094354" lon="104.1040991"><ele>338.11</ele><time>2025-12-18T18:09:37.000Z</time></trkpt>
        <trkpt lat="29.50942" lon="104.1039895"><ele>336.9</ele><time>2025-12-18T18:09:47.000Z</time></trkpt>
        <trkpt lat="29.5093918" lon="104.103886"><ele>336.47</ele><time>2025-12-18T18:09:57.000Z</time></trkpt>
        <trkpt lat="29.5093942" lon="104.103771"><ele>337.17</ele><time>2025-12-18T18:10:07.000Z</time></trkpt>
        <trkpt lat="29.5093975" lon="104.103655"><ele>338.13</ele><time>2025-12-18T18:10:15.000Z</time></trkpt>
        <trkpt lat="29.5093822" lon="104.1035492"><ele>338.59</ele><time>2025-12-18T18:10:25.000Z</time></trkpt>
        <trkpt lat="29.509367" lon="104.1034386"><ele>339.11</ele><time>2025-12-18T18:10:35.000Z</time></trkpt>
        <trkpt lat="29.5093563" lon="104.1033284"><ele>339.32</ele><time>2025-12-18T18:10:45.000Z</time></trkpt>
        <trkpt lat="29.5093675" lon="104.103212"><ele>339.7</ele><time>2025-12-18T18:11:01.000Z</time></trkpt>
        <trkpt lat="29.5093679" lon="104.1030935"><ele>339.48</ele><time>2025-12-18T18:11:15.000Z</time></trkpt>
        <trkpt lat="29.5093256" lon="104.1029882"><ele>339.49</ele><time>2025-12-18T18:11:25.000Z</time></trkpt>
        <trkpt lat="29.5092651" lon="104.1028869"><ele>340.05</ele><time>2025-12-18T18:11:37.000Z</time></trkpt>
        <trkpt lat="29.5091789" lon="104.1028139"><ele>340.85</ele><time>2025-12-18T18:11:49.000Z</time></trkpt>
        <trkpt lat="29.5090756" lon="104.1027747"><ele>341.21</ele><time>2025-12-18T18:12:03.000Z</time></trkpt>
        <trkpt lat="29.5089799" lon="104.1027233"><ele>342.03</ele><time>2025-12-18T18:12:13.000Z</time></trkpt>
        <trkpt lat="29.508888" lon="104.1026873"><ele>343.35</ele><time>2025-12-18T18:12:23.000Z</time></trkpt>
        <trkpt lat="29.5087933" lon="104.1026798"><ele>344.32</ele><time>2025-12-18T18:12:33.000Z</time></trkpt>
        <trkpt lat="29.5086903" lon="104.1027065"><ele>345.26</ele><time>2025-12-18T18:12:45.000Z</time></trkpt>
        <trkpt lat="29.5085933" lon="104.1027497"><ele>345.96</ele><time>2025-12-18T18:12:57.000Z</time></trkpt>
        <trkpt lat="29.5085203" lon="104.1028209"><ele>346.71</ele><time>2025-12-18T18:13:07.000Z</time></trkpt>
        <trkpt lat="29.5084624" lon="104.1029237"><ele>346.49</ele><time>2025-12-18T18:13:19.000Z</time></trkpt>
        <trkpt lat="29.5084125" lon="104.1030225"><ele>345.68</ele><time>2025-12-18T18:13:37.000Z</time></trkpt>
        <trkpt lat="29.5083689" lon="104.1031255"><ele>345.77</ele><time>2025-12-18T18:13:49.000Z</time></trkpt>
        <trkpt lat="29.5083089" lon="104.1032083"><ele>345.61</ele><time>2025-12-18T18:13:59.000Z</time></trkpt>
        <trkpt lat="29.5082493" lon="104.1033042"><ele>344.79</ele><time>2025-12-18T18:14:09.000Z</time></trkpt>
        <trkpt lat="29.5081741" lon="104.103384"><ele>343.93</ele><time>2025-12-18T18:14:21.000Z</time></trkpt>
        <trkpt lat="29.5080882" lon="104.1034375"><ele>343.49</ele><time>2025-12-18T18:14:39.000Z</time></trkpt>
        <trkpt lat="29.5079919" lon="104.1034833"><ele>342.81</ele><time>2025-12-18T18:14:53.000Z</time></trkpt>
        <trkpt lat="29.5079042" lon="104.1035318"><ele>342.72</ele><time>2025-12-18T18:15:07.000Z</time></trkpt>
        <trkpt lat="29.5078157" lon="104.1035777"><ele>342.97</ele><time>2025-12-18T18:15:19.000Z</time></trkpt>
        <trkpt lat="29.5077258" lon="104.1036032"><ele>343.15</ele><time>2025-12-18T18:15:29.000Z</time></trkpt>
        <trkpt lat="29.5076356" lon="104.103638"><ele>343.04</ele><time>2025-12-18T18:15:43.000Z</time></trkpt>
        <trkpt lat="29.5075453" lon="104.1036524"><ele>342.68</ele><time>2025-12-18T18:15:57.000Z</time></trkpt>
        <trkpt lat="29.5074489" lon="104.1036697"><ele>344.41</ele><time>2025-12-18T18:16:11.000Z</time></trkpt>
        <trkpt lat="29.5073565" lon="104.1036691"><ele>346.3</ele><time>2025-12-18T18:16:33.000Z</time></trkpt>
        <trkpt lat="29.5072622" lon="104.1036376"><ele>350.21</ele><time>2025-12-18T18:16:45.000Z</time></trkpt>
        <trkpt lat="29.5071684" lon="104.1036084"><ele>354.25</ele><time>2025-12-18T18:16:59.000Z</time></trkpt>
        <trkpt lat="29.5070762" lon="104.1036101"><ele>358.27</ele><time>2025-12-18T18:17:09.000Z</time></trkpt>
        <trkpt lat="29.5069883" lon="104.1036591"><ele>360.95</ele><time>2025-12-18T18:17:21.000Z</time></trkpt>
        <trkpt lat="29.5068994" lon="104.1036618"><ele>363.42</ele><time>2025-12-18T18:17:33.000Z</time></trkpt>
        <trkpt lat="29.5068933" lon="104.1035517"><ele>364.49</ele><time>2025-12-18T18:19:01.000Z</time></trkpt>
        <trkpt lat="29.506865" lon="104.1034467"><ele>361.05</ele><time>2025-12-18T18:19:11.000Z</time></trkpt>
        <trkpt lat="29.5068606" lon="104.1034122"><ele>358.92</ele><time>2025-12-18T18:19:37.000Z</time></trkpt>
        <trkpt lat="29.5068451" lon="104.1033104"><ele>356.8</ele><time>2025-12-18T18:19:51.000Z</time></trkpt>
        <trkpt lat="29.5067961" lon="104.1032118"><ele>355.38</ele><time>2025-12-18T18:20:03.000Z</time></trkpt>
        <trkpt lat="29.5067325" lon="104.1031079"><ele>354.92</ele><time>2025-12-18T18:20:15.000Z</time></trkpt>
        <trkpt lat="29.5066753" lon="104.1030116"><ele>354.82</ele><time>2025-12-18T18:20:31.000Z</time></trkpt>
        <trkpt lat="29.5066272" lon="104.1029163"><ele>354.68</ele><time>2025-12-18T18:20:41.000Z</time></trkpt>
        <trkpt lat="29.5065781" lon="104.1028151"><ele>354.43</ele><time>2025-12-18T18:20:57.000Z</time></trkpt>
        <trkpt lat="29.5065259" lon="104.1027254"><ele>353.69</ele><time>2025-12-18T18:21:09.000Z</time></trkpt>
        <trkpt lat="29.5064976" lon="104.102624"><ele>353.31</ele><time>2025-12-18T18:21:29.000Z</time></trkpt>
        <trkpt lat="29.50648" lon="104.1025183"><ele>354.29</ele><time>2025-12-18T18:23:55.000Z</time></trkpt>
        <trkpt lat="29.5064183" lon="104.102435"><ele>354.3</ele><time>2025-12-18T18:24:11.000Z</time></trkpt>
        <trkpt lat="29.5063183" lon="104.102335"><ele>353.39</ele><time>2025-12-18T18:25:51.000Z</time></trkpt>
        <trkpt lat="29.50626" lon="104.10225"><ele>351.63</ele><time>2025-12-18T18:26:49.000Z</time></trkpt>
        <trkpt lat="29.5061904" lon="104.1021749"><ele>352.22</ele><time>2025-12-18T18:27:45.000Z</time></trkpt>
        <trkpt lat="29.5061702" lon="104.1020745"><ele>351.09</ele><time>2025-12-18T18:28:19.000Z</time></trkpt>
        <trkpt lat="29.5061379" lon="104.1019712"><ele>352</ele><time>2025-12-18T18:28:47.000Z</time></trkpt>
        <trkpt lat="29.5060948" lon="104.1018739"><ele>352.6</ele><time>2025-12-18T18:28:59.000Z</time></trkpt>
        <trkpt lat="29.5060235" lon="104.1018044"><ele>352.69</ele><time>2025-12-18T18:29:13.000Z</time></trkpt>
        <trkpt lat="29.5060022" lon="104.1017126"><ele>352.26</ele><time>2025-12-18T18:29:27.000Z</time></trkpt>
        <trkpt lat="29.5059482" lon="104.1016375"><ele>352.28</ele><time>2025-12-18T18:29:45.000Z</time></trkpt>
        <trkpt lat="29.5059118" lon="104.1015402"><ele>352.63</ele><time>2025-12-18T18:30:05.000Z</time></trkpt>
        <trkpt lat="29.5058675" lon="104.1014403"><ele>352.27</ele><time>2025-12-18T18:30:25.000Z</time></trkpt>
        <trkpt lat="29.5058087" lon="104.1013465"><ele>351.9</ele><time>2025-12-18T18:30:37.000Z</time></trkpt>
        <trkpt lat="29.5057245" lon="104.1013057"><ele>350.74</ele><time>2025-12-18T18:30:49.000Z</time></trkpt>
        <trkpt lat="29.505632" lon="104.1013406"><ele>349.26</ele><time>2025-12-18T18:31:29.000Z</time></trkpt>
        <trkpt lat="29.5055434" lon="104.1014052"><ele>351.6</ele><time>2025-12-18T18:31:37.000Z</time></trkpt>
        <trkpt lat="29.5055439" lon="104.1015126"><ele>353.41</ele><time>2025-12-18T18:31:45.000Z</time></trkpt>
        <trkpt lat="29.5055113" lon="104.1016122"><ele>353.23</ele><time>2025-12-18T18:31:59.000Z</time></trkpt>
        <trkpt lat="29.5054469" lon="104.1015926"><ele>351.15</ele><time>2025-12-18T18:32:09.000Z</time></trkpt>
        <trkpt lat="29.5053652" lon="104.1015374"><ele>350.18</ele><time>2025-12-18T18:32:33.000Z</time></trkpt>
        <trkpt lat="29.505305" lon="104.1014458"><ele>350.62</ele><time>2025-12-18T18:32:47.000Z</time></trkpt>
        <trkpt lat="29.5053044" lon="104.1013219"><ele>351.69</ele><time>2025-12-18T18:33:03.000Z</time></trkpt>
        <trkpt lat="29.5052664" lon="104.1012209"><ele>352.77</ele><time>2025-12-18T18:33:17.000Z</time></trkpt>
        <trkpt lat="29.5052364" lon="104.1012688"><ele>352.95</ele><time>2025-12-18T18:33:37.000Z</time></trkpt>
        <trkpt lat="29.5051608" lon="104.101317"><ele>352.67</ele><time>2025-12-18T18:34:09.000Z</time></trkpt>
        <trkpt lat="29.5050969" lon="104.1014053"><ele>351.65</ele><time>2025-12-18T18:34:21.000Z</time></trkpt>
        <trkpt lat="29.5051123" lon="104.1013564"><ele>350.17</ele><time>2025-12-18T18:34:49.000Z</time></trkpt>
        <trkpt lat="29.5051924" lon="104.1013382"><ele>348.55</ele><time>2025-12-18T18:34:55.000Z</time></trkpt>
        <trkpt lat="29.505307" lon="104.1013714"><ele>347.32</ele><time>2025-12-18T18:35:03.000Z</time></trkpt>
        <trkpt lat="29.5054136" lon="104.1013657"><ele>345.76</ele><time>2025-12-18T18:35:09.000Z</time></trkpt>
        <trkpt lat="29.5053733" lon="104.1013485"><ele>343.93</ele><time>2025-12-18T18:35:33.000Z</time></trkpt>
        <trkpt lat="29.5052672" lon="104.101328"><ele>342.15</ele><time>2025-12-18T18:36:07.000Z</time></trkpt>
        <trkpt lat="29.5051465" lon="104.1013225"><ele>341.01</ele><time>2025-12-18T18:36:33.000Z</time></trkpt>
        <trkpt lat="29.5050183" lon="104.1013317"><ele>340.23</ele><time>2025-12-18T18:37:49.000Z</time></trkpt>
        <trkpt lat="29.5049283" lon="104.1013367"><ele>339.1</ele><time>2025-12-18T18:37:53.000Z</time></trkpt>
        <trkpt lat="29.5048158" lon="104.1013262"><ele>338.5</ele><time>2025-12-18T18:38:05.000Z</time></trkpt>
        <trkpt lat="29.5046928" lon="104.1013463"><ele>338.2</ele><time>2025-12-18T18:38:21.000Z</time></trkpt>
        <trkpt lat="29.5045702" lon="104.1013673"><ele>338.41</ele><time>2025-12-18T18:38:25.000Z</time></trkpt>
        <trkpt lat="29.5044283" lon="104.1013828"><ele>338.62</ele><time>2025-12-18T18:38:31.000Z</time></trkpt>
        <trkpt lat="29.5044602" lon="104.1013843"><ele>338.79</ele><time>2025-12-18T18:38:33.000Z</time></trkpt>
        <trkpt lat="29.5046083" lon="104.1013782"><ele>338.83</ele><time>2025-12-18T18:38:39.000Z</time></trkpt>
        <trkpt lat="29.5047388" lon="104.1013662"><ele>338.95</ele><time>2025-12-18T18:39:03.000Z</time></trkpt>
        <trkpt lat="29.5048731" lon="104.1013453"><ele>338.76</ele><time>2025-12-18T18:39:09.000Z</time></trkpt>
        <trkpt lat="29.5050063" lon="104.1013621"><ele>338.6</ele><time>2025-12-18T18:39:13.000Z</time></trkpt>
        <trkpt lat="29.5049749" lon="104.1013471"><ele>338.56</ele><time>2025-12-18T18:39:23.000Z</time></trkpt>
        <trkpt lat="29.5050309" lon="104.1013489"><ele>339.05</ele><time>2025-12-18T18:39:29.000Z</time></trkpt>
        <trkpt lat="29.505112" lon="104.1013353"><ele>339.37</ele><time>2025-12-18T18:39:41.000Z</time></trkpt>
        <trkpt lat="29.5052145" lon="104.1013131"><ele>339.3</ele><time>2025-12-18T18:40:15.000Z</time></trkpt>
        <trkpt lat="29.5053232" lon="104.1013172"><ele>341.66</ele><time>2025-12-18T18:40:31.000Z</time></trkpt>
        <trkpt lat="29.5052843" lon="104.1013141"><ele>344.43</ele><time>2025-12-18T18:40:59.000Z</time></trkpt>
        <trkpt lat="29.5051826" lon="104.1013162"><ele>345.97</ele><time>2025-12-18T18:41:21.000Z</time></trkpt>
        <trkpt lat="29.5052206" lon="104.1013262"><ele>345.59</ele><time>2025-12-18T18:41:31.000Z</time></trkpt>
        <trkpt lat="29.5051492" lon="104.1013263"><ele>345.3</ele><time>2025-12-18T18:42:05.000Z</time></trkpt>
        <trkpt lat="29.5051968" lon="104.1013158"><ele>347.32</ele><time>2025-12-18T18:42:19.000Z</time></trkpt>
        <trkpt lat="29.5052818" lon="104.1012679"><ele>348.43</ele><time>2025-12-18T18:42:39.000Z</time></trkpt>
        <trkpt lat="29.5053411" lon="104.1011795"><ele>348.98</ele><time>2025-12-18T18:42:49.000Z</time></trkpt>
        <trkpt lat="29.5053854" lon="104.1010712"><ele>349.16</ele><time>2025-12-18T18:43:09.000Z</time></trkpt>
        <trkpt lat="29.5054182" lon="104.1009565"><ele>348.57</ele><time>2025-12-18T18:43:21.000Z</time></trkpt>
        <trkpt lat="29.5054459" lon="104.1008413"><ele>347.12</ele><time>2025-12-18T18:43:35.000Z</time></trkpt>
        <trkpt lat="29.5054689" lon="104.1007316"><ele>346.12</ele><time>2025-12-18T18:43:53.000Z</time></trkpt>
        <trkpt lat="29.5054694" lon="104.1006198"><ele>344.82</ele><time>2025-12-18T18:44:07.000Z</time></trkpt>
        <trkpt lat="29.5054312" lon="104.1005139"><ele>343.52</ele><time>2025-12-18T18:44:17.000Z</time></trkpt>
        <trkpt lat="29.5054041" lon="104.1004015"><ele>343.64</ele><time>2025-12-18T18:44:29.000Z</time></trkpt>
        <trkpt lat="29.505364" lon="104.1003004"><ele>344.4</ele><time>2025-12-18T18:44:41.000Z</time></trkpt>
        <trkpt lat="29.5053202" lon="104.1001999"><ele>345.78</ele><time>2025-12-18T18:44:53.000Z</time></trkpt>
        <trkpt lat="29.5052874" lon="104.1000854"><ele>345.79</ele><time>2025-12-18T18:45:05.000Z</time></trkpt>
        <trkpt lat="29.5052508" lon="104.0999742"><ele>345.71</ele><time>2025-12-18T18:45:15.000Z</time></trkpt>
        <trkpt lat="29.5052314" lon="104.0998598"><ele>345.49</ele><time>2025-12-18T18:45:29.000Z</time></trkpt>
        <trkpt lat="29.5051996" lon="104.0997495"><ele>345.36</ele><time>2025-12-18T18:45:51.000Z</time></trkpt>
        <trkpt lat="29.5052113" lon="104.0996471"><ele>345.08</ele><time>2025-12-18T18:46:17.000Z</time></trkpt>
        <trkpt lat="29.5052083" lon="104.099525"><ele>344.53</ele><time>2025-12-18T18:47:33.000Z</time></trkpt>
        <trkpt lat="29.5051367" lon="104.0994433"><ele>342.97</ele><time>2025-12-18T18:48:51.000Z</time></trkpt>
        <trkpt lat="29.5051067" lon="104.0995483"><ele>345.39</ele><time>2025-12-18T18:54:31.000Z</time></trkpt>
        <trkpt lat="29.5051567" lon="104.09946"><ele>346.47</ele><time>2025-12-18T18:54:53.000Z</time></trkpt>
        <trkpt lat="29.5051583" lon="104.09935"><ele>347</ele><time>2025-12-18T18:58:49.000Z</time></trkpt>
        <trkpt lat="29.505135" lon="104.0992333"><ele>345.75</ele><time>2025-12-18T18:59:37.000Z</time></trkpt>
        <trkpt lat="29.5051088" lon="104.0991279"><ele>344.4</ele><time>2025-12-18T19:00:35.000Z</time></trkpt>
        <trkpt lat="29.5050565" lon="104.0990297"><ele>344.27</ele><time>2025-12-18T19:00:59.000Z</time></trkpt>
        <trkpt lat="29.5050247" lon="104.0989212"><ele>343.64</ele><time>2025-12-18T19:01:17.000Z</time></trkpt>
        <trkpt lat="29.5049533" lon="104.0988533"><ele>343.71</ele><time>2025-12-18T19:02:51.000Z</time></trkpt>
        <trkpt lat="29.504955" lon="104.0987317"><ele>342.8</ele><time>2025-12-18T19:04:15.000Z</time></trkpt>
        <trkpt lat="29.5048917" lon="104.098655"><ele>341.98</ele><time>2025-12-18T19:04:43.000Z</time></trkpt>
        <trkpt lat="29.50496" lon="104.0985817"><ele>341.99</ele><time>2025-12-18T19:05:43.000Z</time></trkpt>
        <trkpt lat="29.5049867" lon="104.0984817"><ele>340.7</ele><time>2025-12-18T19:06:09.000Z</time></trkpt>
        <trkpt lat="29.5049217" lon="104.09857"><ele>338.38</ele><time>2025-12-18T19:08:01.000Z</time></trkpt>
        <trkpt lat="29.5049383" lon="104.0986783"><ele>336.5</ele><time>2025-12-18T19:08:19.000Z</time></trkpt>
        <trkpt lat="29.50495" lon="104.09857"><ele>336.76</ele><time>2025-12-18T19:09:23.000Z</time></trkpt>
        <trkpt lat="29.5049917" lon="104.0984733"><ele>336.82</ele><time>2025-12-18T19:09:51.000Z</time></trkpt>
        <trkpt lat="29.5049656" lon="104.0983767"><ele>335.65</ele><time>2025-12-18T19:10:35.000Z</time></trkpt>
        <trkpt lat="29.504875" lon="104.0983117"><ele>335.97</ele><time>2025-12-18T19:12:43.000Z</time></trkpt>
        <trkpt lat="29.50494" lon="104.0982317"><ele>339.12</ele><time>2025-12-18T19:14:07.000Z</time></trkpt>
        <trkpt lat="29.5049817" lon="104.0981333"><ele>339.54</ele><time>2025-12-18T19:14:33.000Z</time></trkpt>
        <trkpt lat="29.5050572" lon="104.0980717"><ele>339.22</ele><time>2025-12-18T19:15:21.000Z</time></trkpt>
        <trkpt lat="29.5050767" lon="104.0979633"><ele>338.18</ele><time>2025-12-18T19:16:29.000Z</time></trkpt>
        <trkpt lat="29.5050767" lon="104.097845"><ele>338.06</ele><time>2025-12-18T19:17:01.000Z</time></trkpt>
        <trkpt lat="29.5050936" lon="104.0977182"><ele>338.64</ele><time>2025-12-18T19:17:09.000Z</time></trkpt>
        <trkpt lat="29.5051418" lon="104.0977559"><ele>337.55</ele><time>2025-12-18T19:17:29.000Z</time></trkpt>
        <trkpt lat="29.505225" lon="104.0977634"><ele>336.02</ele><time>2025-12-18T19:17:49.000Z</time></trkpt>
        <trkpt lat="29.505285" lon="104.0978817"><ele>336.48</ele><time>2025-12-18T19:18:53.000Z</time></trkpt>
        <trkpt lat="29.5053767" lon="104.0978633"><ele>340.92</ele><time>2025-12-18T19:19:11.000Z</time></trkpt>
        <trkpt lat="29.5054669" lon="104.0979113"><ele>343.97</ele><time>2025-12-18T19:19:23.000Z</time></trkpt>
        <trkpt lat="29.5055248" lon="104.0979967"><ele>345.62</ele><time>2025-12-18T19:19:33.000Z</time></trkpt>
        <trkpt lat="29.5055963" lon="104.0979825"><ele>346.34</ele><time>2025-12-18T19:19:55.000Z</time></trkpt>
        <trkpt lat="29.50564" lon="104.0978956"><ele>344.86</ele><time>2025-12-18T19:20:01.000Z</time></trkpt>
        <trkpt lat="29.5057149" lon="104.0978689"><ele>343.59</ele><time>2025-12-18T19:20:31.000Z</time></trkpt>
        <trkpt lat="29.5058005" lon="104.097919"><ele>342.09</ele><time>2025-12-18T19:20:59.000Z</time></trkpt>
        <trkpt lat="29.5059167" lon="104.098"><ele>340.67</ele><time>2025-12-18T19:22:27.000Z</time></trkpt>
        <trkpt lat="29.5060033" lon="104.0980283"><ele>339.91</ele><time>2025-12-18T19:24:03.000Z</time></trkpt>
        <trkpt lat="29.506035" lon="104.0979117"><ele>339.65</ele><time>2025-12-18T19:27:13.000Z</time></trkpt>
        <trkpt lat="29.50607" lon="104.0980083"><ele>337.78</ele><time>2025-12-18T19:27:17.000Z</time></trkpt>
        <trkpt lat="29.5061064" lon="104.0981036"><ele>336.67</ele><time>2025-12-18T19:28:01.000Z</time></trkpt>
        <trkpt lat="29.5061791" lon="104.0980802"><ele>335.86</ele><time>2025-12-18T19:28:25.000Z</time></trkpt>
        <trkpt lat="29.5062744" lon="104.0980662"><ele>335.49</ele><time>2025-12-18T19:28:39.000Z</time></trkpt>
        <trkpt lat="29.5063705" lon="104.0980603"><ele>334.76</ele><time>2025-12-18T19:28:55.000Z</time></trkpt>
        <trkpt lat="29.5064698" lon="104.0980602"><ele>334.31</ele><time>2025-12-18T19:29:17.000Z</time></trkpt>
        <trkpt lat="29.5065639" lon="104.0980407"><ele>333.79</ele><time>2025-12-18T19:29:47.000Z</time></trkpt>
        <trkpt lat="29.5066517" lon="104.0979833"><ele>334.01</ele><time>2025-12-18T19:31:39.000Z</time></trkpt>
        <trkpt lat="29.5067067" lon="104.09808"><ele>333.4</ele><time>2025-12-18T19:32:43.000Z</time></trkpt>
        <trkpt lat="29.50677" lon="104.09799"><ele>334.99</ele><time>2025-12-18T19:33:03.000Z</time></trkpt>
        <trkpt lat="29.5068601" lon="104.0979592"><ele>335.81</ele><time>2025-12-18T19:33:17.000Z</time></trkpt>
        <trkpt lat="29.5069473" lon="104.0979145"><ele>335.94</ele><time>2025-12-18T19:33:33.000Z</time></trkpt>
        <trkpt lat="29.5070261" lon="104.0979648"><ele>336.87</ele><time>2025-12-18T19:34:13.000Z</time></trkpt>
        <trkpt lat="29.5071217" lon="104.0979667"><ele>337.74</ele><time>2025-12-18T19:35:21.000Z</time></trkpt>
        <trkpt lat="29.5072217" lon="104.0979483"><ele>335.7</ele><time>2025-12-18T19:35:37.000Z</time></trkpt>
        <trkpt lat="29.507316" lon="104.0979286"><ele>334.15</ele><time>2025-12-18T19:35:49.000Z</time></trkpt>
        <trkpt lat="29.5073399" lon="104.097915"><ele>332.8</ele><time>2025-12-18T19:35:59.000Z</time></trkpt>
        <trkpt lat="29.5074107" lon="104.0978971"><ele>332.07</ele><time>2025-12-18T19:36:31.000Z</time></trkpt>
        <trkpt lat="29.5074617" lon="104.0978083"><ele>331.52</ele><time>2025-12-18T19:37:43.000Z</time></trkpt>
        <trkpt lat="29.5075683" lon="104.09777"><ele>332.37</ele><time>2025-12-18T19:39:55.000Z</time></trkpt>
        <trkpt lat="29.5076517" lon="104.0977067"><ele>331.83</ele><time>2025-12-18T19:40:33.000Z</time></trkpt>
        <trkpt lat="29.5077392" lon="104.0976687"><ele>330.78</ele><time>2025-12-18T19:41:07.000Z</time></trkpt>
        <trkpt lat="29.507816" lon="104.0976147"><ele>330.45</ele><time>2025-12-18T19:41:21.000Z</time></trkpt>
        <trkpt lat="29.5078868" lon="104.097552"><ele>330.3</ele><time>2025-12-18T19:41:33.000Z</time></trkpt>
        <trkpt lat="29.5079521" lon="104.0974813"><ele>330.08</ele><time>2025-12-18T19:41:47.000Z</time></trkpt>
        <trkpt lat="29.5079858" lon="104.0973832"><ele>330.65</ele><time>2025-12-18T19:42:25.000Z</time></trkpt>
        <trkpt lat="29.5079447" lon="104.0972946"><ele>332.99</ele><time>2025-12-18T19:42:39.000Z</time></trkpt>
        <trkpt lat="29.5078533" lon="104.0972553"><ele>334.63</ele><time>2025-12-18T19:42:53.000Z</time></trkpt>
        <trkpt lat="29.5077487" lon="104.0972707"><ele>335.26</ele><time>2025-12-18T19:43:11.000Z</time></trkpt>
        <trkpt lat="29.5076473" lon="104.0973188"><ele>334.98</ele><time>2025-12-18T19:43:27.000Z</time></trkpt>
        <trkpt lat="29.5075407" lon="104.0973619"><ele>334.51</ele><time>2025-12-18T19:43:41.000Z</time></trkpt>
        <trkpt lat="29.5074465" lon="104.0973404"><ele>334.29</ele><time>2025-12-18T19:43:55.000Z</time></trkpt>
        <trkpt lat="29.5073555" lon="104.0973621"><ele>333.91</ele><time>2025-12-18T19:44:37.000Z</time></trkpt>
        <trkpt lat="29.5072632" lon="104.0973585"><ele>333.95</ele><time>2025-12-18T19:44:49.000Z</time></trkpt>
        <trkpt lat="29.5071701" lon="104.097367"><ele>335.09</ele><time>2025-12-18T19:45:01.000Z</time></trkpt>
        <trkpt lat="29.5070793" lon="104.0973734"><ele>336.26</ele><time>2025-12-18T19:45:15.000Z</time></trkpt>
        <trkpt lat="29.5069881" lon="104.0973662"><ele>337.01</ele><time>2025-12-18T19:45:37.000Z</time></trkpt>
        <trkpt lat="29.5068929" lon="104.0973628"><ele>337.56</ele><time>2025-12-18T19:45:51.000Z</time></trkpt>
        <trkpt lat="29.5067999" lon="104.0973315"><ele>336.85</ele><time>2025-12-18T19:46:07.000Z</time></trkpt>
        <trkpt lat="29.5067079" lon="104.0972877"><ele>336.01</ele><time>2025-12-18T19:46:27.000Z</time></trkpt>
        <trkpt lat="29.5066301" lon="104.0972197"><ele>334.41</ele><time>2025-12-18T19:46:43.000Z</time></trkpt>
        <trkpt lat="29.5065461" lon="104.0971643"><ele>333.2</ele><time>2025-12-18T19:46:57.000Z</time></trkpt>
        <trkpt lat="29.506449" lon="104.0971471"><ele>331.74</ele><time>2025-12-18T19:47:19.000Z</time></trkpt>
        <trkpt lat="29.5063596" lon="104.097103"><ele>329.96</ele><time>2025-12-18T19:47:33.000Z</time></trkpt>
        <trkpt lat="29.5062649" lon="104.0970321"><ele>328.9</ele><time>2025-12-18T19:48:05.000Z</time></trkpt>
        <trkpt lat="29.5062132" lon="104.0969294"><ele>326.84</ele><time>2025-12-18T19:48:43.000Z</time></trkpt>
        <trkpt lat="29.5061613" lon="104.0968368"><ele>326.22</ele><time>2025-12-18T19:49:11.000Z</time></trkpt>
        <trkpt lat="29.506097" lon="104.0967569"><ele>326.17</ele><time>2025-12-18T19:49:45.000Z</time></trkpt>
        <trkpt lat="29.5060221" lon="104.0966874"><ele>325.45</ele><time>2025-12-18T19:50:27.000Z</time></trkpt>
        <trkpt lat="29.505942" lon="104.0966203"><ele>324.91</ele><time>2025-12-18T19:50:47.000Z</time></trkpt>
        <trkpt lat="29.5058594" lon="104.0965646"><ele>324.35</ele><time>2025-12-18T19:51:05.000Z</time></trkpt>
        <trkpt lat="29.5058154" lon="104.09647"><ele>324.54</ele><time>2025-12-18T19:51:29.000Z</time></trkpt>
        <trkpt lat="29.5057896" lon="104.0963678"><ele>325.43</ele><time>2025-12-18T19:51:43.000Z</time></trkpt>
        <trkpt lat="29.5057825" lon="104.0962608"><ele>326.36</ele><time>2025-12-18T19:51:57.000Z</time></trkpt>
        <trkpt lat="29.5057601" lon="104.096152"><ele>326.89</ele><time>2025-12-18T19:52:13.000Z</time></trkpt>
        <trkpt lat="29.5057388" lon="104.096046"><ele>326.94</ele><time>2025-12-18T19:52:25.000Z</time></trkpt>
        <trkpt lat="29.5057051" lon="104.0959429"><ele>326.92</ele><time>2025-12-18T19:52:37.000Z</time></trkpt>
        <trkpt lat="29.5056955" lon="104.0958285"><ele>326.78</ele><time>2025-12-18T19:52:55.000Z</time></trkpt>
        <trkpt lat="29.5056753" lon="104.0957199"><ele>327.22</ele><time>2025-12-18T19:53:07.000Z</time></trkpt>
        <trkpt lat="29.5056864" lon="104.0956103"><ele>328.24</ele><time>2025-12-18T19:53:21.000Z</time></trkpt>
        <trkpt lat="29.5057128" lon="104.0954903"><ele>329.69</ele><time>2025-12-18T19:53:33.000Z</time></trkpt>
        <trkpt lat="29.5057369" lon="104.095379"><ele>330.77</ele><time>2025-12-18T19:53:43.000Z</time></trkpt>
        <trkpt lat="29.5057646" lon="104.095269"><ele>331.38</ele><time>2025-12-18T19:53:55.000Z</time></trkpt>
        <trkpt lat="29.5058091" lon="104.0951606"><ele>330.96</ele><time>2025-12-18T19:54:09.000Z</time></trkpt>
        <trkpt lat="29.5058642" lon="104.0950677"><ele>329.52</ele><time>2025-12-18T19:54:21.000Z</time></trkpt>
        <trkpt lat="29.5058818" lon="104.0949664"><ele>328.82</ele><time>2025-12-18T19:54:33.000Z</time></trkpt>
        <trkpt lat="29.5058769" lon="104.0948587"><ele>328.55</ele><time>2025-12-18T19:54:55.000Z</time></trkpt>
        <trkpt lat="29.5058715" lon="104.0947498"><ele>327.46</ele><time>2025-12-18T19:55:09.000Z</time></trkpt>
        <trkpt lat="29.5058516" lon="104.0946395"><ele>326.36</ele><time>2025-12-18T19:55:27.000Z</time></trkpt>
        <trkpt lat="29.5058224" lon="104.0945228"><ele>325.86</ele><time>2025-12-18T19:55:41.000Z</time></trkpt>
        <trkpt lat="29.5058652" lon="104.0944339"><ele>326.05</ele><time>2025-12-18T19:55:53.000Z</time></trkpt>
        <trkpt lat="29.5058753" lon="104.0943256"><ele>326.41</ele><time>2025-12-18T19:56:09.000Z</time></trkpt>
        <trkpt lat="29.5058727" lon="104.094219"><ele>325.46</ele><time>2025-12-18T19:56:19.000Z</time></trkpt>
        <trkpt lat="29.5058505" lon="104.0941171"><ele>324.06</ele><time>2025-12-18T19:56:29.000Z</time></trkpt>
        <trkpt lat="29.5058218" lon="104.0940146"><ele>323.52</ele><time>2025-12-18T19:56:41.000Z</time></trkpt>
        <trkpt lat="29.5058185" lon="104.0939028"><ele>324.11</ele><time>2025-12-18T19:56:59.000Z</time></trkpt>
        <trkpt lat="29.5058107" lon="104.0937901"><ele>324.19</ele><time>2025-12-18T19:57:13.000Z</time></trkpt>
        <trkpt lat="29.5057953" lon="104.0936851"><ele>324.02</ele><time>2025-12-18T19:57:31.000Z</time></trkpt>
        <trkpt lat="29.505767" lon="104.0935844"><ele>322.9</ele><time>2025-12-18T19:57:43.000Z</time></trkpt>
        <trkpt lat="29.5057343" lon="104.0934863"><ele>321.95</ele><time>2025-12-18T19:57:55.000Z</time></trkpt>
        <trkpt lat="29.5056996" lon="104.0933825"><ele>321.03</ele><time>2025-12-18T19:58:07.000Z</time></trkpt>
        <trkpt lat="29.5056649" lon="104.09328"><ele>320.71</ele><time>2025-12-18T19:58:25.000Z</time></trkpt>
        <trkpt lat="29.5056332" lon="104.0931794"><ele>320.84</ele><time>2025-12-18T19:58:51.000Z</time></trkpt>
        <trkpt lat="29.5055615" lon="104.0931095"><ele>320.95</ele><time>2025-12-18T19:59:19.000Z</time></trkpt>
        <trkpt lat="29.5054689" lon="104.093062"><ele>320.67</ele><time>2025-12-18T19:59:33.000Z</time></trkpt>
        <trkpt lat="29.5053683" lon="104.093031"><ele>320.73</ele><time>2025-12-18T19:59:47.000Z</time></trkpt>
        <trkpt lat="29.5052697" lon="104.0929863"><ele>320.76</ele><time>2025-12-18T19:59:59.000Z</time></trkpt>
        <trkpt lat="29.5051796" lon="104.0929471"><ele>320.86</ele><time>2025-12-18T20:00:09.000Z</time></trkpt>
        <trkpt lat="29.5050885" lon="104.0929346"><ele>321.31</ele><time>2025-12-18T20:00:19.000Z</time></trkpt>
        <trkpt lat="29.5049994" lon="104.0929552"><ele>322.12</ele><time>2025-12-18T20:00:29.000Z</time></trkpt>
        <trkpt lat="29.5049061" lon="104.0929799"><ele>322.84</ele><time>2025-12-18T20:00:41.000Z</time></trkpt>
        <trkpt lat="29.5048199" lon="104.0930397"><ele>323.08</ele><time>2025-12-18T20:00:53.000Z</time></trkpt>
        <trkpt lat="29.5047402" lon="104.0931207"><ele>323.09</ele><time>2025-12-18T20:01:15.000Z</time></trkpt>
        <trkpt lat="29.5046902" lon="104.0932191"><ele>322.97</ele><time>2025-12-18T20:01:33.000Z</time></trkpt>
        <trkpt lat="29.5046643" lon="104.0933287"><ele>322.85</ele><time>2025-12-18T20:01:59.000Z</time></trkpt>
        <trkpt lat="29.5046315" lon="104.0934338"><ele>323.13</ele><time>2025-12-18T20:02:11.000Z</time></trkpt>
        <trkpt lat="29.5045951" lon="104.0935329"><ele>323.12</ele><time>2025-12-18T20:02:23.000Z</time></trkpt>
        <trkpt lat="29.5045641" lon="104.0936416"><ele>322.03</ele><time>2025-12-18T20:02:35.000Z</time></trkpt>
        <trkpt lat="29.5045598" lon="104.0937525"><ele>321.16</ele><time>2025-12-18T20:02:45.000Z</time></trkpt>
        <trkpt lat="29.5045661" lon="104.0938623"><ele>320.45</ele><time>2025-12-18T20:03:01.000Z</time></trkpt>
        <trkpt lat="29.5045082" lon="104.0939388"><ele>320.9</ele><time>2025-12-18T20:03:17.000Z</time></trkpt>
        <trkpt lat="29.5044191" lon="104.093988"><ele>321.37</ele><time>2025-12-18T20:03:35.000Z</time></trkpt>
        <trkpt lat="29.5044917" lon="104.0939583"><ele>320.18</ele><time>2025-12-18T20:04:41.000Z</time></trkpt>
        <trkpt lat="29.5045817" lon="104.09398"><ele>318.42</ele><time>2025-12-18T20:05:03.000Z</time></trkpt>
        <trkpt lat="29.5046251" lon="104.0940665"><ele>319.32</ele><time>2025-12-18T20:05:17.000Z</time></trkpt>
        <trkpt lat="29.5046346" lon="104.0941877"><ele>321.29</ele><time>2025-12-18T20:05:39.000Z</time></trkpt>
        <trkpt lat="29.5046069" lon="104.0942975"><ele>323.75</ele><time>2025-12-18T20:05:49.000Z</time></trkpt>
        <trkpt lat="29.5046137" lon="104.0944038"><ele>325.23</ele><time>2025-12-18T20:06:03.000Z</time></trkpt>
        <trkpt lat="29.5045965" lon="104.0945176"><ele>325.78</ele><time>2025-12-18T20:06:13.000Z</time></trkpt>
        <trkpt lat="29.5046106" lon="104.0946237"><ele>325.7</ele><time>2025-12-18T20:06:33.000Z</time></trkpt>
        <trkpt lat="29.5046438" lon="104.0947339"><ele>325.49</ele><time>2025-12-18T20:06:45.000Z</time></trkpt>
        <trkpt lat="29.5046705" lon="104.0948531"><ele>325.23</ele><time>2025-12-18T20:06:57.000Z</time></trkpt>
        <trkpt lat="29.5046931" lon="104.0949704"><ele>324.75</ele><time>2025-12-18T20:07:09.000Z</time></trkpt>
        <trkpt lat="29.5047114" lon="104.0950914"><ele>324.04</ele><time>2025-12-18T20:07:23.000Z</time></trkpt>
        <trkpt lat="29.5047292" lon="104.0952048"><ele>323.33</ele><time>2025-12-18T20:07:35.000Z</time></trkpt>
        <trkpt lat="29.5047108" lon="104.0953114"><ele>322.37</ele><time>2025-12-18T20:07:47.000Z</time></trkpt>
        <trkpt lat="29.5046855" lon="104.0954145"><ele>322.73</ele><time>2025-12-18T20:07:57.000Z</time></trkpt>
        <trkpt lat="29.5046711" lon="104.0955242"><ele>324.05</ele><time>2025-12-18T20:08:11.000Z</time></trkpt>
        <trkpt lat="29.5046596" lon="104.0956357"><ele>325.32</ele><time>2025-12-18T20:08:23.000Z</time></trkpt>
        <trkpt lat="29.5046156" lon="104.0957364"><ele>326.64</ele><time>2025-12-18T20:08:35.000Z</time></trkpt>
        <trkpt lat="29.5045946" lon="104.0958417"><ele>327.66</ele><time>2025-12-18T20:08:47.000Z</time></trkpt>
        <trkpt lat="29.5045876" lon="104.0959556"><ele>327.5</ele><time>2025-12-18T20:09:45.000Z</time></trkpt>
        <trkpt lat="29.5045942" lon="104.0960738"><ele>327.42</ele><time>2025-12-18T20:09:59.000Z</time></trkpt>
        <trkpt lat="29.5046135" lon="104.0961906"><ele>327.32</ele><time>2025-12-18T20:10:11.000Z</time></trkpt>
        <trkpt lat="29.5046186" lon="104.0962976"><ele>327.79</ele><time>2025-12-18T20:10:21.000Z</time></trkpt>
        <trkpt lat="29.5046198" lon="104.0964072"><ele>328.57</ele><time>2025-12-18T20:10:31.000Z</time></trkpt>
        <trkpt lat="29.5046233" lon="104.0965132"><ele>329.66</ele><time>2025-12-18T20:10:43.000Z</time></trkpt>
        <trkpt lat="29.5046067" lon="104.0966241"><ele>331.27</ele><time>2025-12-18T20:10:55.000Z</time></trkpt>
        <trkpt lat="29.5045989" lon="104.0967422"><ele>332.4</ele><time>2025-12-18T20:11:17.000Z</time></trkpt>
        <trkpt lat="29.5045467" lon="104.0968276"><ele>331.97</ele><time>2025-12-18T20:11:27.000Z</time></trkpt>
        <trkpt lat="29.5044758" lon="104.0969007"><ele>331.04</ele><time>2025-12-18T20:11:35.000Z</time></trkpt>
        <trkpt lat="29.5044194" lon="104.0969833"><ele>329.47</ele><time>2025-12-18T20:11:45.000Z</time></trkpt>
        <trkpt lat="29.5043856" lon="104.0970784"><ele>328.54</ele><time>2025-12-18T20:11:55.000Z</time></trkpt>
        <trkpt lat="29.5043305" lon="104.0971671"><ele>328.35</ele><time>2025-12-18T20:12:05.000Z</time></trkpt>
        <trkpt lat="29.5042679" lon="104.0972641"><ele>328.67</ele><time>2025-12-18T20:12:17.000Z</time></trkpt>
        <trkpt lat="29.5042056" lon="104.0973492"><ele>329.2</ele><time>2025-12-18T20:12:29.000Z</time></trkpt>
        <trkpt lat="29.5041317" lon="104.0974284"><ele>330.19</ele><time>2025-12-18T20:12:41.000Z</time></trkpt>
        <trkpt lat="29.504094" lon="104.0975295"><ele>331.27</ele><time>2025-12-18T20:12:51.000Z</time></trkpt>
        <trkpt lat="29.5040416" lon="104.0976167"><ele>332.27</ele><time>2025-12-18T20:13:05.000Z</time></trkpt>
        <trkpt lat="29.5039835" lon="104.0977029"><ele>333.27</ele><time>2025-12-18T20:13:29.000Z</time></trkpt>
        <trkpt lat="29.5039071" lon="104.097774"><ele>334.92</ele><time>2025-12-18T20:13:39.000Z</time></trkpt>
        <trkpt lat="29.5038229" lon="104.0978285"><ele>336.89</ele><time>2025-12-18T20:13:51.000Z</time></trkpt>
        <trkpt lat="29.5037222" lon="104.0978566"><ele>338.61</ele><time>2025-12-18T20:14:07.000Z</time></trkpt>
        <trkpt lat="29.5036201" lon="104.0978526"><ele>340.03</ele><time>2025-12-18T20:14:19.000Z</time></trkpt>
        <trkpt lat="29.5035241" lon="104.0978392"><ele>341.95</ele><time>2025-12-18T20:14:29.000Z</time></trkpt>
        <trkpt lat="29.5034223" lon="104.0978464"><ele>343.39</ele><time>2025-12-18T20:14:41.000Z</time></trkpt>
        <trkpt lat="29.5033273" lon="104.0978483"><ele>344.13</ele><time>2025-12-18T20:14:55.000Z</time></trkpt>
        <trkpt lat="29.5032389" lon="104.0977969"><ele>343.9</ele><time>2025-12-18T20:15:11.000Z</time></trkpt>
        <trkpt lat="29.5031516" lon="104.097745"><ele>342.82</ele><time>2025-12-18T20:15:23.000Z</time></trkpt>
        <trkpt lat="29.5030691" lon="104.097691"><ele>341.52</ele><time>2025-12-18T20:15:35.000Z</time></trkpt>
        <trkpt lat="29.5029906" lon="104.0976229"><ele>339.45</ele><time>2025-12-18T20:15:51.000Z</time></trkpt>
        <trkpt lat="29.5029207" lon="104.097548"><ele>336.72</ele><time>2025-12-18T20:16:07.000Z</time></trkpt>
        <trkpt lat="29.5028648" lon="104.0974646"><ele>334.04</ele><time>2025-12-18T20:16:17.000Z</time></trkpt>
        <trkpt lat="29.5027882" lon="104.0974016"><ele>331.7</ele><time>2025-12-18T20:16:27.000Z</time></trkpt>
        <trkpt lat="29.5027041" lon="104.0973583"><ele>330.28</ele><time>2025-12-18T20:16:47.000Z</time></trkpt>
        <trkpt lat="29.5026142" lon="104.097348"><ele>330.07</ele><time>2025-12-18T20:17:07.000Z</time></trkpt>
        <trkpt lat="29.5025177" lon="104.0973421"><ele>331.98</ele><time>2025-12-18T20:17:25.000Z</time></trkpt>
        <trkpt lat="29.5024271" lon="104.0973202"><ele>335.47</ele><time>2025-12-18T20:17:39.000Z</time></trkpt>
        <trkpt lat="29.502353" lon="104.0972596"><ele>338.97</ele><time>2025-12-18T20:17:53.000Z</time></trkpt>
        <trkpt lat="29.5022977" lon="104.0971736"><ele>340.57</ele><time>2025-12-18T20:18:07.000Z</time></trkpt>
        <trkpt lat="29.502247" lon="104.097078"><ele>340.33</ele><time>2025-12-18T20:18:25.000Z</time></trkpt>
        <trkpt lat="29.5022066" lon="104.0969751"><ele>338.51</ele><time>2025-12-18T20:18:45.000Z</time></trkpt>
        <trkpt lat="29.5021801" lon="104.0968601"><ele>336.14</ele><time>2025-12-18T20:18:59.000Z</time></trkpt>
        <trkpt lat="29.5021614" lon="104.0967434"><ele>333.89</ele><time>2025-12-18T20:19:13.000Z</time></trkpt>
        <trkpt lat="29.5021279" lon="104.0966425"><ele>331.57</ele><time>2025-12-18T20:19:25.000Z</time></trkpt>
        <trkpt lat="29.5021079" lon="104.0965406"><ele>329.65</ele><time>2025-12-18T20:19:37.000Z</time></trkpt>
        <trkpt lat="29.5021017" lon="104.0964293"><ele>328.08</ele><time>2025-12-18T20:19:49.000Z</time></trkpt>
        <trkpt lat="29.5021263" lon="104.0963067"><ele>326.71</ele><time>2025-12-18T20:20:01.000Z</time></trkpt>
        <trkpt lat="29.5021398" lon="104.0961906"><ele>325.8</ele><time>2025-12-18T20:20:11.000Z</time></trkpt>
        <trkpt lat="29.5021118" lon="104.0960839"><ele>324.73</ele><time>2025-12-18T20:20:23.000Z</time></trkpt>
        <trkpt lat="29.5020606" lon="104.0959807"><ele>323.47</ele><time>2025-12-18T20:20:37.000Z</time></trkpt>
        <trkpt lat="29.5020067" lon="104.0958833"><ele>323.14</ele><time>2025-12-18T20:20:51.000Z</time></trkpt>
        <trkpt lat="29.5019565" lon="104.0957889"><ele>323.64</ele><time>2025-12-18T20:21:19.000Z</time></trkpt>
        <trkpt lat="29.5018941" lon="104.0957063"><ele>323.79</ele><time>2025-12-18T20:21:33.000Z</time></trkpt>
        <trkpt lat="29.5018715" lon="104.0956012"><ele>323.84</ele><time>2025-12-18T20:21:51.000Z</time></trkpt>
        <trkpt lat="29.5018357" lon="104.0955059"><ele>325.28</ele><time>2025-12-18T20:22:17.000Z</time></trkpt>
        <trkpt lat="29.5018108" lon="104.0954061"><ele>325.85</ele><time>2025-12-18T20:22:29.000Z</time></trkpt>
        <trkpt lat="29.5019" lon="104.0954467"><ele>325.61</ele><time>2025-12-18T20:24:51.000Z</time></trkpt>
        <trkpt lat="29.501955" lon="104.0955467"><ele>324.23</ele><time>2025-12-18T20:25:15.000Z</time></trkpt>
        <trkpt lat="29.5019917" lon="104.0956565"><ele>322.45</ele><time>2025-12-18T20:25:49.000Z</time></trkpt>
        <trkpt lat="29.5019929" lon="104.0955983"><ele>321.18</ele><time>2025-12-18T20:26:19.000Z</time></trkpt>
        <trkpt lat="29.5019905" lon="104.0954814"><ele>320.07</ele><time>2025-12-18T20:27:07.000Z</time></trkpt>
        <trkpt lat="29.5021467" lon="104.0954"><ele>317.93</ele><time>2025-12-18T20:28:13.000Z</time></trkpt>
        <trkpt lat="29.5022383" lon="104.09539"><ele>316.84</ele><time>2025-12-18T20:28:49.000Z</time></trkpt>
        <trkpt lat="29.5022623" lon="104.0952996"><ele>315.75</ele><time>2025-12-18T20:29:15.000Z</time></trkpt>
        <trkpt lat="29.5023322" lon="104.0952362"><ele>315.13</ele><time>2025-12-18T20:29:31.000Z</time></trkpt>
        <trkpt lat="29.5023709" lon="104.0951431"><ele>315.54</ele><time>2025-12-18T20:29:43.000Z</time></trkpt>
        <trkpt lat="29.5023655" lon="104.0950284"><ele>316.26</ele><time>2025-12-18T20:29:55.000Z</time></trkpt>
        <trkpt lat="29.5023287" lon="104.09492"><ele>316.83</ele><time>2025-12-18T20:30:11.000Z</time></trkpt>
        <trkpt lat="29.5022861" lon="104.0948149"><ele>317.55</ele><time>2025-12-18T20:30:25.000Z</time></trkpt>
        <trkpt lat="29.5022209" lon="104.0947306"><ele>318.78</ele><time>2025-12-18T20:30:39.000Z</time></trkpt>
        <trkpt lat="29.5021483" lon="104.094615"><ele>319.82</ele><time>2025-12-18T20:32:05.000Z</time></trkpt>
        <trkpt lat="29.5020817" lon="104.0945367"><ele>320.67</ele><time>2025-12-18T20:32:15.000Z</time></trkpt>
        <trkpt lat="29.5020305" lon="104.0944485"><ele>321.07</ele><time>2025-12-18T20:32:27.000Z</time></trkpt>
        <trkpt lat="29.5019628" lon="104.0943675"><ele>320.87</ele><time>2025-12-18T20:32:39.000Z</time></trkpt>
        <trkpt lat="29.5019088" lon="104.0942762"><ele>320.45</ele><time>2025-12-18T20:32:49.000Z</time></trkpt>
        <trkpt lat="29.5018901" lon="104.0941637"><ele>320.26</ele><time>2025-12-18T20:33:03.000Z</time></trkpt>
        <trkpt lat="29.5019114" lon="104.0940537"><ele>320.4</ele><time>2025-12-18T20:33:13.000Z</time></trkpt>
        <trkpt lat="29.5019163" lon="104.0939312"><ele>320.57</ele><time>2025-12-18T20:33:27.000Z</time></trkpt>
        <trkpt lat="29.5018418" lon="104.0938998"><ele>321.27</ele><time>2025-12-18T20:33:45.000Z</time></trkpt>
        <trkpt lat="29.5017436" lon="104.093909"><ele>321.93</ele><time>2025-12-18T20:33:55.000Z</time></trkpt>
        <trkpt lat="29.5016382" lon="104.0939285"><ele>322.39</ele><time>2025-12-18T20:34:05.000Z</time></trkpt>
        <trkpt lat="29.5015359" lon="104.0939486"><ele>323.21</ele><time>2025-12-18T20:34:17.000Z</time></trkpt>
        <trkpt lat="29.5014295" lon="104.0939369"><ele>323.9</ele><time>2025-12-18T20:34:29.000Z</time></trkpt>
        <trkpt lat="29.5013263" lon="104.0939097"><ele>324.37</ele><time>2025-12-18T20:34:41.000Z</time></trkpt>
        <trkpt lat="29.5012201" lon="104.0939188"><ele>325.03</ele><time>2025-12-18T20:34:53.000Z</time></trkpt>
        <trkpt lat="29.5011242" lon="104.0939514"><ele>325.66</ele><time>2025-12-18T20:35:05.000Z</time></trkpt>
        <trkpt lat="29.5010624" lon="104.0940351"><ele>325.72</ele><time>2025-12-18T20:35:19.000Z</time></trkpt>
        <trkpt lat="29.5009951" lon="104.0941167"><ele>325.24</ele><time>2025-12-18T20:35:31.000Z</time></trkpt>
        <trkpt lat="29.50091" lon="104.0941711"><ele>323.8</ele><time>2025-12-18T20:35:41.000Z</time></trkpt>
        <trkpt lat="29.5008238" lon="104.0942188"><ele>321.99</ele><time>2025-12-18T20:35:53.000Z</time></trkpt>
        <trkpt lat="29.5007615" lon="104.0943006"><ele>319.8</ele><time>2025-12-18T20:36:05.000Z</time></trkpt>
        <trkpt lat="29.5006934" lon="104.0943756"><ele>318.81</ele><time>2025-12-18T20:36:13.000Z</time></trkpt>
        <trkpt lat="29.5006357" lon="104.0944566"><ele>319.07</ele><time>2025-12-18T20:36:27.000Z</time></trkpt>
        <trkpt lat="29.500574" lon="104.094543"><ele>319.85</ele><time>2025-12-18T20:36:37.000Z</time></trkpt>
        <trkpt lat="29.5005816" lon="104.0946435"><ele>320.65</ele><time>2025-12-18T20:36:53.000Z</time></trkpt>
        <trkpt lat="29.5005416" lon="104.0947233"><ele>322</ele><time>2025-12-18T20:37:11.000Z</time></trkpt>
        <trkpt lat="29.5004905" lon="104.0948046"><ele>323.21</ele><time>2025-12-18T20:37:29.000Z</time></trkpt>
        <trkpt lat="29.500452" lon="104.0949033"><ele>323.25</ele><time>2025-12-18T20:37:41.000Z</time></trkpt>
        <trkpt lat="29.5004517" lon="104.0950085"><ele>322.37</ele><time>2025-12-18T20:37:51.000Z</time></trkpt>
        <trkpt lat="29.5004613" lon="104.0951152"><ele>321.31</ele><time>2025-12-18T20:38:01.000Z</time></trkpt>
        <trkpt lat="29.5004911" lon="104.0952255"><ele>320.44</ele><time>2025-12-18T20:38:13.000Z</time></trkpt>
        <trkpt lat="29.5004891" lon="104.0953328"><ele>319.82</ele><time>2025-12-18T20:38:27.000Z</time></trkpt>
        <trkpt lat="29.5004784" lon="104.0954448"><ele>319.3</ele><time>2025-12-18T20:38:43.000Z</time></trkpt>
        <trkpt lat="29.5004351" lon="104.0955522"><ele>319.51</ele><time>2025-12-18T20:38:57.000Z</time></trkpt>
        <trkpt lat="29.5004071" lon="104.0956689"><ele>319.42</ele><time>2025-12-18T20:39:07.000Z</time></trkpt>
        <trkpt lat="29.5003994" lon="104.0957878"><ele>318.9</ele><time>2025-12-18T20:39:19.000Z</time></trkpt>
        <trkpt lat="29.5003794" lon="104.0958958"><ele>317.99</ele><time>2025-12-18T20:39:31.000Z</time></trkpt>
        <trkpt lat="29.5003678" lon="104.0960044"><ele>317.27</ele><time>2025-12-18T20:39:43.000Z</time></trkpt>
        <trkpt lat="29.5003644" lon="104.0961124"><ele>316.89</ele><time>2025-12-18T20:40:01.000Z</time></trkpt>
        <trkpt lat="29.5003487" lon="104.0962254"><ele>317.24</ele><time>2025-12-18T20:40:15.000Z</time></trkpt>
        <trkpt lat="29.500329" lon="104.0963379"><ele>317.7</ele><time>2025-12-18T20:40:27.000Z</time></trkpt>
        <trkpt lat="29.500302" lon="104.0964449"><ele>317.87</ele><time>2025-12-18T20:40:39.000Z</time></trkpt>
        <trkpt lat="29.5002715" lon="104.0965461"><ele>317.67</ele><time>2025-12-18T20:40:51.000Z</time></trkpt>
        <trkpt lat="29.5002553" lon="104.0966617"><ele>317.21</ele><time>2025-12-18T20:41:03.000Z</time></trkpt>
        <trkpt lat="29.500226" lon="104.096778"><ele>317.03</ele><time>2025-12-18T20:41:17.000Z</time></trkpt>
        <trkpt lat="29.500189" lon="104.096879"><ele>317.45</ele><time>2025-12-18T20:41:29.000Z</time></trkpt>
        <trkpt lat="29.5001446" lon="104.0969829"><ele>317.86</ele><time>2025-12-18T20:41:43.000Z</time></trkpt>
        <trkpt lat="29.500063" lon="104.0969945"><ele>318.95</ele><time>2025-12-18T20:42:25.000Z</time></trkpt>
        <trkpt lat="29.5000226" lon="104.0969025"><ele>317.55</ele><time>2025-12-18T20:42:41.000Z</time></trkpt>
        <trkpt lat="29.5000158" lon="104.0967841"><ele>315.98</ele><time>2025-12-18T20:42:53.000Z</time></trkpt>
        <trkpt lat="29.5000103" lon="104.0966631"><ele>315.39</ele><time>2025-12-18T20:43:03.000Z</time></trkpt>
        <trkpt lat="29.4999742" lon="104.0965547"><ele>315.26</ele><time>2025-12-18T20:43:23.000Z</time></trkpt>
        <trkpt lat="29.4999557" lon="104.0964391"><ele>316.44</ele><time>2025-12-18T20:43:37.000Z</time></trkpt>
        <trkpt lat="29.4999019" lon="104.0963482"><ele>318.32</ele><time>2025-12-18T20:43:49.000Z</time></trkpt>
        <trkpt lat="29.4998511" lon="104.0962523"><ele>320.12</ele><time>2025-12-18T20:44:01.000Z</time></trkpt>
        <trkpt lat="29.4997943" lon="104.0961649"><ele>321.53</ele><time>2025-12-18T20:44:13.000Z</time></trkpt>
        <trkpt lat="29.4997073" lon="104.0961695"><ele>322.46</ele><time>2025-12-18T20:44:29.000Z</time></trkpt>
        <trkpt lat="29.4996162" lon="104.0961306"><ele>323.17</ele><time>2025-12-18T20:44:43.000Z</time></trkpt>
        <trkpt lat="29.4995432" lon="104.0960468"><ele>322.79</ele><time>2025-12-18T20:44:53.000Z</time></trkpt>
        <trkpt lat="29.4994831" lon="104.0959486"><ele>321.25</ele><time>2025-12-18T20:45:07.000Z</time></trkpt>
        <trkpt lat="29.4994324" lon="104.0958473"><ele>318.99</ele><time>2025-12-18T20:45:17.000Z</time></trkpt>
        <trkpt lat="29.4993793" lon="104.0957482"><ele>317.4</ele><time>2025-12-18T20:45:33.000Z</time></trkpt>
        <trkpt lat="29.4993181" lon="104.0956585"><ele>316.93</ele><time>2025-12-18T20:45:45.000Z</time></trkpt>
        <trkpt lat="29.4992661" lon="104.0955641"><ele>317.09</ele><time>2025-12-18T20:45:55.000Z</time></trkpt>
        <trkpt lat="29.4991825" lon="104.0955128"><ele>316.96</ele><time>2025-12-18T20:46:07.000Z</time></trkpt>
        <trkpt lat="29.4990934" lon="104.0954611"><ele>316.64</ele><time>2025-12-18T20:46:19.000Z</time></trkpt>
        <trkpt lat="29.4990025" lon="104.0954195"><ele>316.45</ele><time>2025-12-18T20:46:33.000Z</time></trkpt>
        <trkpt lat="29.498902" lon="104.0953879"><ele>317.42</ele><time>2025-12-18T20:46:59.000Z</time></trkpt>
        <trkpt lat="29.4988075" lon="104.0953562"><ele>318.92</ele><time>2025-12-18T20:47:13.000Z</time></trkpt>
        <trkpt lat="29.4987111" lon="104.0953397"><ele>320.11</ele><time>2025-12-18T20:47:25.000Z</time></trkpt>
        <trkpt lat="29.4986129" lon="104.0953531"><ele>321.44</ele><time>2025-12-18T20:47:37.000Z</time></trkpt>
        <trkpt lat="29.4985254" lon="104.0954025"><ele>322.37</ele><time>2025-12-18T20:47:49.000Z</time></trkpt>
        <trkpt lat="29.4984458" lon="104.0954604"><ele>322.98</ele><time>2025-12-18T20:47:59.000Z</time></trkpt>
        <trkpt lat="29.4983712" lon="104.0955294"><ele>322.91</ele><time>2025-12-18T20:48:11.000Z</time></trkpt>
        <trkpt lat="29.4983026" lon="104.0956129"><ele>323.08</ele><time>2025-12-18T20:48:23.000Z</time></trkpt>
        <trkpt lat="29.4982294" lon="104.0957025"><ele>323.69</ele><time>2025-12-18T20:48:35.000Z</time></trkpt>
        <trkpt lat="29.498155" lon="104.09579"><ele>324.38</ele><time>2025-12-18T20:48:47.000Z</time></trkpt>
        <trkpt lat="29.4980727" lon="104.095863"><ele>325.29</ele><time>2025-12-18T20:48:59.000Z</time></trkpt>
        <trkpt lat="29.497985" lon="104.0958983"><ele>326.84</ele><time>2025-12-18T20:50:17.000Z</time></trkpt>
        <trkpt lat="29.4978933" lon="104.0959283"><ele>325.79</ele><time>2025-12-18T20:50:45.000Z</time></trkpt>
        <trkpt lat="29.4978031" lon="104.0959287"><ele>324.81</ele><time>2025-12-18T20:50:57.000Z</time></trkpt>
        <trkpt lat="29.4977105" lon="104.0959226"><ele>324.55</ele><time>2025-12-18T20:51:11.000Z</time></trkpt>
        <trkpt lat="29.4976285" lon="104.0958653"><ele>325.82</ele><time>2025-12-18T20:51:25.000Z</time></trkpt>
        <trkpt lat="29.4975691" lon="104.0957703"><ele>327.36</ele><time>2025-12-18T20:51:37.000Z</time></trkpt>
        <trkpt lat="29.4975525" lon="104.0956582"><ele>328.71</ele><time>2025-12-18T20:51:49.000Z</time></trkpt>
        <trkpt lat="29.4975264" lon="104.0956978"><ele>329.57</ele><time>2025-12-18T20:52:21.000Z</time></trkpt>
        <trkpt lat="29.4974547" lon="104.0957031"><ele>331.09</ele><time>2025-12-18T20:52:31.000Z</time></trkpt>
        <trkpt lat="29.497369" lon="104.0956717"><ele>332.17</ele><time>2025-12-18T20:52:41.000Z</time></trkpt>
        <trkpt lat="29.4972751" lon="104.0956716"><ele>332.57</ele><time>2025-12-18T20:52:53.000Z</time></trkpt>
        <trkpt lat="29.4971936" lon="104.095724"><ele>332.07</ele><time>2025-12-18T20:53:05.000Z</time></trkpt>
        <trkpt lat="29.497137" lon="104.0958108"><ele>330.23</ele><time>2025-12-18T20:53:15.000Z</time></trkpt>
        <trkpt lat="29.4970919" lon="104.0959192"><ele>328.02</ele><time>2025-12-18T20:53:25.000Z</time></trkpt>
        <trkpt lat="29.4970335" lon="104.0960155"><ele>327.07</ele><time>2025-12-18T20:53:37.000Z</time></trkpt>
        <trkpt lat="29.4969563" lon="104.096083"><ele>326.39</ele><time>2025-12-18T20:53:47.000Z</time></trkpt>
        <trkpt lat="29.4968697" lon="104.0961351"><ele>326.18</ele><time>2025-12-18T20:53:57.000Z</time></trkpt>
        <trkpt lat="29.4967821" lon="104.0961739"><ele>326.28</ele><time>2025-12-18T20:54:07.000Z</time></trkpt>
        <trkpt lat="29.4966851" lon="104.0961904"><ele>327.02</ele><time>2025-12-18T20:54:17.000Z</time></trkpt>
        <trkpt lat="29.496584" lon="104.0962053"><ele>328.09</ele><time>2025-12-18T20:54:27.000Z</time></trkpt>
        <trkpt lat="29.4964886" lon="104.0962203"><ele>329.47</ele><time>2025-12-18T20:54:37.000Z</time></trkpt>
        <trkpt lat="29.4963959" lon="104.0962591"><ele>331.2</ele><time>2025-12-18T20:54:49.000Z</time></trkpt>
        <trkpt lat="29.4963055" lon="104.0962946"><ele>332.79</ele><time>2025-12-18T20:55:01.000Z</time></trkpt>
        <trkpt lat="29.4962158" lon="104.0963142"><ele>333.23</ele><time>2025-12-18T20:55:31.000Z</time></trkpt>
        <trkpt lat="29.4961212" lon="104.0963025"><ele>331.41</ele><time>2025-12-18T20:55:49.000Z</time></trkpt>
        <trkpt lat="29.4960259" lon="104.0962802"><ele>330.67</ele><time>2025-12-18T20:56:01.000Z</time></trkpt>
        <trkpt lat="29.4959242" lon="104.096246"><ele>330.38</ele><time>2025-12-18T20:56:13.000Z</time></trkpt>
        <trkpt lat="29.4958292" lon="104.0962042"><ele>330.65</ele><time>2025-12-18T20:56:23.000Z</time></trkpt>
        <trkpt lat="29.4957357" lon="104.0961673"><ele>330.84</ele><time>2025-12-18T20:56:35.000Z</time></trkpt>
        <trkpt lat="29.4956402" lon="104.096131"><ele>331.34</ele><time>2025-12-18T20:56:47.000Z</time></trkpt>
        <trkpt lat="29.49555" lon="104.0960979"><ele>331.45</ele><time>2025-12-18T20:56:57.000Z</time></trkpt>
        <trkpt lat="29.4954605" lon="104.0960497"><ele>331.26</ele><time>2025-12-18T20:57:07.000Z</time></trkpt>
        <trkpt lat="29.4953661" lon="104.0960185"><ele>330.85</ele><time>2025-12-18T20:57:19.000Z</time></trkpt>
        <trkpt lat="29.4952708" lon="104.0959919"><ele>331</ele><time>2025-12-18T20:57:31.000Z</time></trkpt>
        <trkpt lat="29.4951742" lon="104.095965"><ele>331.9</ele><time>2025-12-18T20:57:43.000Z</time></trkpt>
        <trkpt lat="29.4950873" lon="104.0959264"><ele>332.46</ele><time>2025-12-18T20:57:53.000Z</time></trkpt>
        <trkpt lat="29.4950015" lon="104.0958856"><ele>332.48</ele><time>2025-12-18T20:58:03.000Z</time></trkpt>
        <trkpt lat="29.4949195" lon="104.0958334"><ele>332.06</ele><time>2025-12-18T20:58:13.000Z</time></trkpt>
        <trkpt lat="29.4948297" lon="104.0957748"><ele>331.86</ele><time>2025-12-18T20:58:25.000Z</time></trkpt>
        <trkpt lat="29.4947493" lon="104.0957047"><ele>332.26</ele><time>2025-12-18T20:58:37.000Z</time></trkpt>
        <trkpt lat="29.4946738" lon="104.0956299"><ele>333.48</ele><time>2025-12-18T20:59:01.000Z</time></trkpt>
        <trkpt lat="29.4946197" lon="104.095537"><ele>333.75</ele><time>2025-12-18T20:59:13.000Z</time></trkpt>
        <trkpt lat="29.4945768" lon="104.0954344"><ele>333.9</ele><time>2025-12-18T20:59:35.000Z</time></trkpt>
        <trkpt lat="29.4945364" lon="104.0953373"><ele>333.9</ele><time>2025-12-18T20:59:51.000Z</time></trkpt>
        <trkpt lat="29.4944731" lon="104.0952635"><ele>333.47</ele><time>2025-12-18T21:00:07.000Z</time></trkpt>
        <trkpt lat="29.4944081" lon="104.0951823"><ele>332.49</ele><time>2025-12-18T21:00:19.000Z</time></trkpt>
        <trkpt lat="29.4943508" lon="104.0950961"><ele>331.29</ele><time>2025-12-18T21:00:35.000Z</time></trkpt>
        <trkpt lat="29.494293" lon="104.0950004"><ele>330.48</ele><time>2025-12-18T21:00:49.000Z</time></trkpt>
        <trkpt lat="29.4942475" lon="104.0949064"><ele>329.8</ele><time>2025-12-18T21:01:11.000Z</time></trkpt>
        <trkpt lat="29.4942" lon="104.0948037"><ele>329.2</ele><time>2025-12-18T21:01:23.000Z</time></trkpt>
        <trkpt lat="29.4941725" lon="104.0947731"><ele>328.47</ele><time>2025-12-18T21:01:35.000Z</time></trkpt>
        <trkpt lat="29.4941921" lon="104.0948533"><ele>328.05</ele><time>2025-12-18T21:02:15.000Z</time></trkpt>
        <trkpt lat="29.4942552" lon="104.0949529"><ele>327.64</ele><time>2025-12-18T21:02:25.000Z</time></trkpt>
        <trkpt lat="29.4943297" lon="104.0950591"><ele>327.32</ele><time>2025-12-18T21:02:35.000Z</time></trkpt>
        <trkpt lat="29.4943981" lon="104.0951624"><ele>327.57</ele><time>2025-12-18T21:02:45.000Z</time></trkpt>
        <trkpt lat="29.4944538" lon="104.0952628"><ele>328.19</ele><time>2025-12-18T21:02:59.000Z</time></trkpt>
        <trkpt lat="29.4945138" lon="104.0953479"><ele>329.18</ele><time>2025-12-18T21:03:17.000Z</time></trkpt>
        <trkpt lat="29.4945818" lon="104.0954244"><ele>330.74</ele><time>2025-12-18T21:03:35.000Z</time></trkpt>
        <trkpt lat="29.4946311" lon="104.0955158"><ele>332.44</ele><time>2025-12-18T21:03:49.000Z</time></trkpt>
        <trkpt lat="29.4946881" lon="104.0955995"><ele>333.03</ele><time>2025-12-18T21:04:01.000Z</time></trkpt>
        <trkpt lat="29.4947462" lon="104.0956863"><ele>333.66</ele><time>2025-12-18T21:04:13.000Z</time></trkpt>
        <trkpt lat="29.4948209" lon="104.0957506"><ele>333.89</ele><time>2025-12-18T21:04:25.000Z</time></trkpt>
        <trkpt lat="29.4949091" lon="104.0958153"><ele>333.55</ele><time>2025-12-18T21:04:37.000Z</time></trkpt>
        <trkpt lat="29.4949938" lon="104.0958765"><ele>333.44</ele><time>2025-12-18T21:04:45.000Z</time></trkpt>
        <trkpt lat="29.4950948" lon="104.0959344"><ele>333.6</ele><time>2025-12-18T21:04:57.000Z</time></trkpt>
        <trkpt lat="29.4951799" lon="104.0959929"><ele>333.38</ele><time>2025-12-18T21:05:09.000Z</time></trkpt>
        <trkpt lat="29.4952644" lon="104.0960396"><ele>333.22</ele><time>2025-12-18T21:05:19.000Z</time></trkpt>
        <trkpt lat="29.4953627" lon="104.0960458"><ele>332.65</ele><time>2025-12-18T21:05:27.000Z</time></trkpt>
        <trkpt lat="29.4954536" lon="104.0960643"><ele>331.68</ele><time>2025-12-18T21:05:35.000Z</time></trkpt>
        <trkpt lat="29.4955413" lon="104.0961062"><ele>330.79</ele><time>2025-12-18T21:05:45.000Z</time></trkpt>
        <trkpt lat="29.4956352" lon="104.0961499"><ele>330.75</ele><time>2025-12-18T21:05:55.000Z</time></trkpt>
        <trkpt lat="29.4956002" lon="104.0962183"><ele>331.59</ele><time>2025-12-18T21:06:15.000Z</time></trkpt>
        <trkpt lat="29.4955192" lon="104.0962889"><ele>331.59</ele><time>2025-12-18T21:06:27.000Z</time></trkpt>
        <trkpt lat="29.4954369" lon="104.0963625"><ele>330.56</ele><time>2025-12-18T21:06:41.000Z</time></trkpt>
        <trkpt lat="29.4954532" lon="104.0964524"><ele>328.9</ele><time>2025-12-18T21:06:55.000Z</time></trkpt>
        <trkpt lat="29.4955288" lon="104.0965187"><ele>327.35</ele><time>2025-12-18T21:07:05.000Z</time></trkpt>
        <trkpt lat="29.4956275" lon="104.0965715"><ele>326.3</ele><time>2025-12-18T21:07:15.000Z</time></trkpt>
        <trkpt lat="29.4957344" lon="104.0966236"><ele>326.04</ele><time>2025-12-18T21:07:27.000Z</time></trkpt>
        <trkpt lat="29.4958416" lon="104.0966554"><ele>325.81</ele><time>2025-12-18T21:07:39.000Z</time></trkpt>
        <trkpt lat="29.4959401" lon="104.0966752"><ele>325.76</ele><time>2025-12-18T21:07:51.000Z</time></trkpt>
        <trkpt lat="29.4960415" lon="104.0966846"><ele>325.48</ele><time>2025-12-18T21:08:03.000Z</time></trkpt>
        <trkpt lat="29.496135" lon="104.0966904"><ele>325.31</ele><time>2025-12-18T21:08:11.000Z</time></trkpt>
        <trkpt lat="29.4962203" lon="104.09672"><ele>325.01</ele><time>2025-12-18T21:08:25.000Z</time></trkpt>
        <trkpt lat="29.4962703" lon="104.0968055"><ele>325.82</ele><time>2025-12-18T21:08:41.000Z</time></trkpt>
        <trkpt lat="29.4962917" lon="104.0969219"><ele>326.72</ele><time>2025-12-18T21:09:03.000Z</time></trkpt>
        <trkpt lat="29.4962748" lon="104.0970385"><ele>325.38</ele><time>2025-12-18T21:09:13.000Z</time></trkpt>
        <trkpt lat="29.4962142" lon="104.0971279"><ele>322.63</ele><time>2025-12-18T21:09:25.000Z</time></trkpt>
        <trkpt lat="29.4961111" lon="104.0971404"><ele>320.6</ele><time>2025-12-18T21:09:41.000Z</time></trkpt>
        <trkpt lat="29.4960093" lon="104.0971189"><ele>319.31</ele><time>2025-12-18T21:09:53.000Z</time></trkpt>
        <trkpt lat="29.4958951" lon="104.0971246"><ele>317.84</ele><time>2025-12-18T21:10:03.000Z</time></trkpt>
        <trkpt lat="29.4957949" lon="104.0971219"><ele>316.71</ele><time>2025-12-18T21:10:11.000Z</time></trkpt>
        <trkpt lat="29.4956981" lon="104.0971194"><ele>315.76</ele><time>2025-12-18T21:10:23.000Z</time></trkpt>
        <trkpt lat="29.4955977" lon="104.0971228"><ele>315.47</ele><time>2025-12-18T21:10:35.000Z</time></trkpt>
        <trkpt lat="29.4955073" lon="104.0971551"><ele>316.3</ele><time>2025-12-18T21:10:51.000Z</time></trkpt>
        <trkpt lat="29.495497" lon="104.0972468"><ele>317.59</ele><time>2025-12-18T21:11:25.000Z</time></trkpt>
        <trkpt lat="29.4954367" lon="104.0972884"><ele>318.37</ele><time>2025-12-18T21:11:43.000Z</time></trkpt>
        <trkpt lat="29.495346" lon="104.097295"><ele>319.24</ele><time>2025-12-18T21:12:01.000Z</time></trkpt>
        <trkpt lat="29.4952444" lon="104.0972895"><ele>321.33</ele><time>2025-12-18T21:12:15.000Z</time></trkpt>
        <trkpt lat="29.4951457" lon="104.0973029"><ele>324.03</ele><time>2025-12-18T21:12:27.000Z</time></trkpt>
        <trkpt lat="29.4950446" lon="104.0973114"><ele>326.47</ele><time>2025-12-18T21:12:37.000Z</time></trkpt>
        <trkpt lat="29.4949521" lon="104.0973531"><ele>328.03</ele><time>2025-12-18T21:12:47.000Z</time></trkpt>
        <trkpt lat="29.4948644" lon="104.0973971"><ele>329.01</ele><time>2025-12-18T21:13:09.000Z</time></trkpt>
        <trkpt lat="29.4947595" lon="104.0974053"><ele>329.82</ele><time>2025-12-18T21:13:43.000Z</time></trkpt>
        <trkpt lat="29.4946542" lon="104.0973742"><ele>329.04</ele><time>2025-12-18T21:13:53.000Z</time></trkpt>
        <trkpt lat="29.4945632" lon="104.0973177"><ele>328.33</ele><time>2025-12-18T21:14:03.000Z</time></trkpt>
        <trkpt lat="29.4944892" lon="104.0972298"><ele>328.23</ele><time>2025-12-18T21:14:19.000Z</time></trkpt>
        <trkpt lat="29.4944259" lon="104.0971346"><ele>329.6</ele><time>2025-12-18T21:14:33.000Z</time></trkpt>
        <trkpt lat="29.4943577" lon="104.0971577"><ele>330.8</ele><time>2025-12-18T21:14:43.000Z</time></trkpt>
        <trkpt lat="29.4942852" lon="104.0972237"><ele>332.35</ele><time>2025-12-18T21:14:51.000Z</time></trkpt>
        <trkpt lat="29.494207" lon="104.09731"><ele>333.49</ele><time>2025-12-18T21:15:01.000Z</time></trkpt>
        <trkpt lat="29.4942181" lon="104.0974236"><ele>334.31</ele><time>2025-12-18T21:15:13.000Z</time></trkpt>
        <trkpt lat="29.4942723" lon="104.097532"><ele>334.61</ele><time>2025-12-18T21:15:23.000Z</time></trkpt>
        <trkpt lat="29.49435" lon="104.09761"><ele>334.39</ele><time>2025-12-18T21:15:33.000Z</time></trkpt>
        <trkpt lat="29.4944264" lon="104.0976827"><ele>334.78</ele><time>2025-12-18T21:15:43.000Z</time></trkpt>
        <trkpt lat="29.4945034" lon="104.0977506"><ele>335.82</ele><time>2025-12-18T21:15:53.000Z</time></trkpt>
        <trkpt lat="29.4945787" lon="104.0978149"><ele>336.46</ele><time>2025-12-18T21:16:03.000Z</time></trkpt>
        <trkpt lat="29.4946549" lon="104.0978861"><ele>337.12</ele><time>2025-12-18T21:16:17.000Z</time></trkpt>
        <trkpt lat="29.494785" lon="104.0978733"><ele>339</ele><time>2025-12-18T21:17:51.000Z</time></trkpt>
        <trkpt lat="29.4948817" lon="104.09788"><ele>342.66</ele><time>2025-12-18T21:18:17.000Z</time></trkpt>
        <trkpt lat="29.4949924" lon="104.0979036"><ele>345.34</ele><time>2025-12-18T21:18:33.000Z</time></trkpt>
        <trkpt lat="29.4950954" lon="104.0979302"><ele>347.56</ele><time>2025-12-18T21:18:47.000Z</time></trkpt>
        <trkpt lat="29.495191" lon="104.097954"><ele>348.78</ele><time>2025-12-18T21:18:57.000Z</time></trkpt>
        <trkpt lat="29.4952827" lon="104.0979853"><ele>349.01</ele><time>2025-12-18T21:19:07.000Z</time></trkpt>
        <trkpt lat="29.4953722" lon="104.098018"><ele>348.96</ele><time>2025-12-18T21:19:17.000Z</time></trkpt>
        <trkpt lat="29.4954563" lon="104.0980619"><ele>349.06</ele><time>2025-12-18T21:19:29.000Z</time></trkpt>
        <trkpt lat="29.4955413" lon="104.0981246"><ele>348.78</ele><time>2025-12-18T21:19:43.000Z</time></trkpt>
        <trkpt lat="29.4956283" lon="104.0981608"><ele>348.57</ele><time>2025-12-18T21:19:53.000Z</time></trkpt>
        <trkpt lat="29.4957188" lon="104.0981621"><ele>348.5</ele><time>2025-12-18T21:20:03.000Z</time></trkpt>
        <trkpt lat="29.4958169" lon="104.0981726"><ele>348.76</ele><time>2025-12-18T21:20:13.000Z</time></trkpt>
        <trkpt lat="29.49591" lon="104.0981637"><ele>348.95</ele><time>2025-12-18T21:20:25.000Z</time></trkpt>
        <trkpt lat="29.4960133" lon="104.0981584"><ele>349.01</ele><time>2025-12-18T21:20:59.000Z</time></trkpt>
        <trkpt lat="29.496099" lon="104.098196"><ele>348.92</ele><time>2025-12-18T21:21:15.000Z</time></trkpt>
        <trkpt lat="29.4961753" lon="104.098261"><ele>349.04</ele><time>2025-12-18T21:22:09.000Z</time></trkpt>
        <trkpt lat="29.4962638" lon="104.0983115"><ele>347.99</ele><time>2025-12-18T21:22:39.000Z</time></trkpt>
        <trkpt lat="29.4963538" lon="104.0983453"><ele>350.49</ele><time>2025-12-18T21:23:17.000Z</time></trkpt>
        <trkpt lat="29.496438" lon="104.09839"><ele>353.16</ele><time>2025-12-18T21:23:27.000Z</time></trkpt>
        <trkpt lat="29.4965198" lon="104.0984468"><ele>354.68</ele><time>2025-12-18T21:23:37.000Z</time></trkpt>
        <trkpt lat="29.496606" lon="104.0984939"><ele>355.81</ele><time>2025-12-18T21:23:47.000Z</time></trkpt>
        <trkpt lat="29.496679" lon="104.0985668"><ele>356.84</ele><time>2025-12-18T21:23:59.000Z</time></trkpt>
        <trkpt lat="29.4967471" lon="104.0986492"><ele>357.85</ele><time>2025-12-18T21:24:09.000Z</time></trkpt>
        <trkpt lat="29.4968216" lon="104.0987299"><ele>358.6</ele><time>2025-12-18T21:24:29.000Z</time></trkpt>
        <trkpt lat="29.4969065" lon="104.0987888"><ele>359.76</ele><time>2025-12-18T21:24:39.000Z</time></trkpt>
        <trkpt lat="29.4969965" lon="104.0988178"><ele>360.25</ele><time>2025-12-18T21:24:49.000Z</time></trkpt>
        <trkpt lat="29.4970927" lon="104.0988092"><ele>360.36</ele><time>2025-12-18T21:25:05.000Z</time></trkpt>
        <trkpt lat="29.4971756" lon="104.0988642"><ele>360.25</ele><time>2025-12-18T21:25:31.000Z</time></trkpt>
        <trkpt lat="29.4972531" lon="104.098943"><ele>359.88</ele><time>2025-12-18T21:25:43.000Z</time></trkpt>
        <trkpt lat="29.4973326" lon="104.09902"><ele>359.89</ele><time>2025-12-18T21:25:55.000Z</time></trkpt>
        <trkpt lat="29.4973783" lon="104.0991141"><ele>360.67</ele><time>2025-12-18T21:26:05.000Z</time></trkpt>
        <trkpt lat="29.4974194" lon="104.0992222"><ele>361.63</ele><time>2025-12-18T21:26:17.000Z</time></trkpt>
        <trkpt lat="29.4973931" lon="104.0993263"><ele>362.69</ele><time>2025-12-18T21:26:27.000Z</time></trkpt>
        <trkpt lat="29.4973371" lon="104.0994261"><ele>363.56</ele><time>2025-12-18T21:26:41.000Z</time></trkpt>
        <trkpt lat="29.4972948" lon="104.0995288"><ele>363.53</ele><time>2025-12-18T21:26:51.000Z</time></trkpt>
        <trkpt lat="29.4972852" lon="104.0996324"><ele>363</ele><time>2025-12-18T21:27:01.000Z</time></trkpt>
        <trkpt lat="29.4973452" lon="104.0997073"><ele>362.05</ele><time>2025-12-18T21:27:13.000Z</time></trkpt>
        <trkpt lat="29.4974045" lon="104.0997916"><ele>360.87</ele><time>2025-12-18T21:27:27.000Z</time></trkpt>
        <trkpt lat="29.4974855" lon="104.0998671"><ele>360.75</ele><time>2025-12-18T21:27:41.000Z</time></trkpt>
        <trkpt lat="29.4975521" lon="104.0999522"><ele>361.89</ele><time>2025-12-18T21:28:01.000Z</time></trkpt>
        <trkpt lat="29.4976135" lon="104.1000601"><ele>362.07</ele><time>2025-12-18T21:28:17.000Z</time></trkpt>
        <trkpt lat="29.4976963" lon="104.1001312"><ele>363.67</ele><time>2025-12-18T21:28:35.000Z</time></trkpt>
        <trkpt lat="29.4977795" lon="104.1001987"><ele>368.33</ele><time>2025-12-18T21:28:53.000Z</time></trkpt>
        <trkpt lat="29.4978529" lon="104.10028"><ele>369.78</ele><time>2025-12-18T21:29:07.000Z</time></trkpt>
        <trkpt lat="29.4979258" lon="104.1003471"><ele>370</ele><time>2025-12-18T21:29:27.000Z</time></trkpt>
        <trkpt lat="29.4980125" lon="104.1003825"><ele>371.38</ele><time>2025-12-18T21:29:37.000Z</time></trkpt>
        <trkpt lat="29.4981032" lon="104.1003957"><ele>372.59</ele><time>2025-12-18T21:29:49.000Z</time></trkpt>
        <trkpt lat="29.4981958" lon="104.1004278"><ele>374.45</ele><time>2025-12-18T21:30:01.000Z</time></trkpt>
        <trkpt lat="29.4982798" lon="104.1004805"><ele>376.92</ele><time>2025-12-18T21:30:27.000Z</time></trkpt>
        <trkpt lat="29.498344" lon="104.1005584"><ele>377.69</ele><time>2025-12-18T21:30:47.000Z</time></trkpt>
        <trkpt lat="29.4984025" lon="104.1006432"><ele>377.86</ele><time>2025-12-18T21:31:03.000Z</time></trkpt>
        <trkpt lat="29.4984563" lon="104.1007362"><ele>377.84</ele><time>2025-12-18T21:31:17.000Z</time></trkpt>
        <trkpt lat="29.4984718" lon="104.1008507"><ele>378.04</ele><time>2025-12-18T21:31:31.000Z</time></trkpt>
        <trkpt lat="29.4984315" lon="104.1009557"><ele>378.84</ele><time>2025-12-18T21:31:43.000Z</time></trkpt>
        <trkpt lat="29.4983558" lon="104.1010265"><ele>380.16</ele><time>2025-12-18T21:31:55.000Z</time></trkpt>
        <trkpt lat="29.4982653" lon="104.1010795"><ele>381.34</ele><time>2025-12-18T21:32:07.000Z</time></trkpt>
        <trkpt lat="29.4981811" lon="104.1011363"><ele>381.23</ele><time>2025-12-18T21:32:17.000Z</time></trkpt>
        <trkpt lat="29.4981424" lon="104.1011738"><ele>380.62</ele><time>2025-12-18T21:32:27.000Z</time></trkpt>
        <trkpt lat="29.4980778" lon="104.1012377"><ele>380.31</ele><time>2025-12-18T21:32:57.000Z</time></trkpt>
        <trkpt lat="29.4981196" lon="104.1013025"><ele>379.92</ele><time>2025-12-18T21:33:25.000Z</time></trkpt>
        <trkpt lat="29.4982158" lon="104.1013158"><ele>381.03</ele><time>2025-12-18T21:33:39.000Z</time></trkpt>
        <trkpt lat="29.4983212" lon="104.1013148"><ele>381.19</ele><time>2025-12-18T21:33:51.000Z</time></trkpt>
        <trkpt lat="29.4983465" lon="104.1013074"><ele>381.28</ele><time>2025-12-18T21:33:59.000Z</time></trkpt>
        <trkpt lat="29.4984214" lon="104.1013061"><ele>382.45</ele><time>2025-12-18T21:34:55.000Z</time></trkpt>
        <trkpt lat="29.4985107" lon="104.1013499"><ele>383.2</ele><time>2025-12-18T21:35:05.000Z</time></trkpt>
        <trkpt lat="29.4986013" lon="104.1014043"><ele>382.38</ele><time>2025-12-18T21:35:17.000Z</time></trkpt>
        <trkpt lat="29.4986771" lon="104.1014792"><ele>383.29</ele><time>2025-12-18T21:35:37.000Z</time></trkpt>
        <trkpt lat="29.498724" lon="104.1015736"><ele>383.38</ele><time>2025-12-18T21:36:05.000Z</time></trkpt>
        <trkpt lat="29.4987269" lon="104.1016919"><ele>381.84</ele><time>2025-12-18T21:36:21.000Z</time></trkpt>
        <trkpt lat="29.4987029" lon="104.1018054"><ele>380.28</ele><time>2025-12-18T21:36:37.000Z</time></trkpt>
        <trkpt lat="29.4987314" lon="104.1019034"><ele>380.2</ele><time>2025-12-18T21:36:49.000Z</time></trkpt>
        <trkpt lat="29.4987822" lon="104.1019998"><ele>380.03</ele><time>2025-12-18T21:37:05.000Z</time></trkpt>
        <trkpt lat="29.4988351" lon="104.1021009"><ele>379.63</ele><time>2025-12-18T21:37:27.000Z</time></trkpt>
        <trkpt lat="29.4988819" lon="104.1021977"><ele>379.44</ele><time>2025-12-18T21:37:41.000Z</time></trkpt>
        <trkpt lat="29.4989341" lon="104.1022915"><ele>380.07</ele><time>2025-12-18T21:37:55.000Z</time></trkpt>
        <trkpt lat="29.4989668" lon="104.1023945"><ele>381.16</ele><time>2025-12-18T21:38:25.000Z</time></trkpt>
        <trkpt lat="29.4989981" lon="104.1025022"><ele>381.65</ele><time>2025-12-18T21:38:43.000Z</time></trkpt>
        <trkpt lat="29.4990123" lon="104.1026152"><ele>381.67</ele><time>2025-12-18T21:38:53.000Z</time></trkpt>
        <trkpt lat="29.4989983" lon="104.1027207"><ele>380.82</ele><time>2025-12-18T21:39:11.000Z</time></trkpt>
        <trkpt lat="29.4989663" lon="104.1028294"><ele>379.82</ele><time>2025-12-18T21:39:29.000Z</time></trkpt>
        <trkpt lat="29.4989175" lon="104.1029368"><ele>379.13</ele><time>2025-12-18T21:39:49.000Z</time></trkpt>
        <trkpt lat="29.4988696" lon="104.1030411"><ele>378.68</ele><time>2025-12-18T21:40:03.000Z</time></trkpt>
        <trkpt lat="29.4988668" lon="104.1031443"><ele>377.49</ele><time>2025-12-18T21:40:19.000Z</time></trkpt>
        <trkpt lat="29.4988489" lon="104.103251"><ele>377.62</ele><time>2025-12-18T21:40:41.000Z</time></trkpt>
        <trkpt lat="29.498811" lon="104.1033479"><ele>378.69</ele><time>2025-12-18T21:41:21.000Z</time></trkpt>
        <trkpt lat="29.4987694" lon="104.1034536"><ele>380.54</ele><time>2025-12-18T21:41:39.000Z</time></trkpt>
        <trkpt lat="29.498725" lon="104.1035605"><ele>382.16</ele><time>2025-12-18T21:41:57.000Z</time></trkpt>
        <trkpt lat="29.4986589" lon="104.1036414"><ele>384.11</ele><time>2025-12-18T21:42:09.000Z</time></trkpt>
        <trkpt lat="29.4985817" lon="104.1037112"><ele>385.66</ele><time>2025-12-18T21:42:21.000Z</time></trkpt>
        <trkpt lat="29.498497" lon="104.1037596"><ele>386.28</ele><time>2025-12-18T21:42:35.000Z</time></trkpt>
        <trkpt lat="29.4984146" lon="104.1038228"><ele>386.5</ele><time>2025-12-18T21:42:49.000Z</time></trkpt>
        <trkpt lat="29.4983242" lon="104.1038732"><ele>386.33</ele><time>2025-12-18T21:43:01.000Z</time></trkpt>
        <trkpt lat="29.4982451" lon="104.1039328"><ele>385.28</ele><time>2025-12-18T21:43:15.000Z</time></trkpt>
        <trkpt lat="29.4981647" lon="104.1039954"><ele>384.56</ele><time>2025-12-18T21:43:29.000Z</time></trkpt>
        <trkpt lat="29.4980746" lon="104.104029"><ele>384.49</ele><time>2025-12-18T21:43:43.000Z</time></trkpt>
        <trkpt lat="29.4979974" lon="104.104083"><ele>384.62</ele><time>2025-12-18T21:43:59.000Z</time></trkpt>
        <trkpt lat="29.497959" lon="104.1041785"><ele>384.74</ele><time>2025-12-18T21:44:13.000Z</time></trkpt>
        <trkpt lat="29.4979621" lon="104.1042914"><ele>384.85</ele><time>2025-12-18T21:44:27.000Z</time></trkpt>
        <trkpt lat="29.4979904" lon="104.1044182"><ele>384.53</ele><time>2025-12-18T21:44:55.000Z</time></trkpt>
        <trkpt lat="29.4980394" lon="104.104777"><ele>384.04</ele><time>2025-12-18T21:45:03.000Z</time></trkpt>
        <trkpt lat="29.4981816" lon="104.1049781"><ele>385.49</ele><time>2025-12-18T21:45:07.000Z</time></trkpt>
        <trkpt lat="29.4983188" lon="104.1050616"><ele>386.48</ele><time>2025-12-18T21:45:09.000Z</time></trkpt>
        <trkpt lat="29.4984312" lon="104.1051034"><ele>387.22</ele><time>2025-12-18T21:45:11.000Z</time></trkpt>
        <trkpt lat="29.4984736" lon="104.1052161"><ele>387.51</ele><time>2025-12-18T21:45:15.000Z</time></trkpt>
        <trkpt lat="29.4984389" lon="104.1053243"><ele>388.02</ele><time>2025-12-18T21:45:17.000Z</time></trkpt>
        <trkpt lat="29.4984033" lon="104.1054479"><ele>388.74</ele><time>2025-12-18T21:45:19.000Z</time></trkpt>
        <trkpt lat="29.4984062" lon="104.1055895"><ele>389.37</ele><time>2025-12-18T21:45:21.000Z</time></trkpt>
        <trkpt lat="29.498454" lon="104.1057242"><ele>389.43</ele><time>2025-12-18T21:45:23.000Z</time></trkpt>
        <trkpt lat="29.4985392" lon="104.1058438"><ele>389.2</ele><time>2025-12-18T21:45:25.000Z</time></trkpt>
        <trkpt lat="29.4986403" lon="104.1059598"><ele>388.64</ele><time>2025-12-18T21:45:27.000Z</time></trkpt>
        <trkpt lat="29.4987414" lon="104.1060877"><ele>388.11</ele><time>2025-12-18T21:45:29.000Z</time></trkpt>
        <trkpt lat="29.4988747" lon="104.1062443"><ele>387.42</ele><time>2025-12-18T21:45:31.000Z</time></trkpt>
        <trkpt lat="29.4989671" lon="104.1063634"><ele>387.02</ele><time>2025-12-18T21:45:33.000Z</time></trkpt>
        <trkpt lat="29.4990633" lon="104.106457"><ele>386.63</ele><time>2025-12-18T21:45:35.000Z</time></trkpt>
        <trkpt lat="29.499153" lon="104.1065562"><ele>386.23</ele><time>2025-12-18T21:45:37.000Z</time></trkpt>
        <trkpt lat="29.4992081" lon="104.1066807"><ele>385.66</ele><time>2025-12-18T21:45:39.000Z</time></trkpt>
        <trkpt lat="29.4992071" lon="104.1068277"><ele>385.12</ele><time>2025-12-18T21:45:41.000Z</time></trkpt>
        <trkpt lat="29.4992004" lon="104.1069682"><ele>384.64</ele><time>2025-12-18T21:45:43.000Z</time></trkpt>
        <trkpt lat="29.4992384" lon="104.1070695"><ele>384.02</ele><time>2025-12-18T21:45:45.000Z</time></trkpt>
        <trkpt lat="29.499319" lon="104.1071571"><ele>383.58</ele><time>2025-12-18T21:45:47.000Z</time></trkpt>
        <trkpt lat="29.4994104" lon="104.1072654"><ele>383.46</ele><time>2025-12-18T21:45:49.000Z</time></trkpt>
        <trkpt lat="29.4995279" lon="104.1073867"><ele>383.3</ele><time>2025-12-18T21:45:51.000Z</time></trkpt>
        <trkpt lat="29.4996013" lon="104.1075088"><ele>383.17</ele><time>2025-12-18T21:45:53.000Z</time></trkpt>
        <trkpt lat="29.4996787" lon="104.1076353"><ele>383.23</ele><time>2025-12-18T21:45:55.000Z</time></trkpt>
        <trkpt lat="29.4997586" lon="104.1077705"><ele>383.39</ele><time>2025-12-18T21:45:57.000Z</time></trkpt>
        <trkpt lat="29.4998585" lon="104.1079021"><ele>383.31</ele><time>2025-12-18T21:45:59.000Z</time></trkpt>
        <trkpt lat="29.4999332" lon="104.1080104"><ele>383.35</ele><time>2025-12-18T21:46:01.000Z</time></trkpt>
        <trkpt lat="29.5000465" lon="104.1080273"><ele>383.2</ele><time>2025-12-18T21:46:03.000Z</time></trkpt>
        <trkpt lat="29.5001584" lon="104.1079644"><ele>383.46</ele><time>2025-12-18T21:46:05.000Z</time></trkpt>
        <trkpt lat="29.5002731" lon="104.1079494"><ele>383.86</ele><time>2025-12-18T21:46:07.000Z</time></trkpt>
        <trkpt lat="29.500383" lon="104.107973"><ele>383.92</ele><time>2025-12-18T21:46:11.000Z</time></trkpt>
        <trkpt lat="29.5005344" lon="104.1079556"><ele>385.29</ele><time>2025-12-18T21:46:15.000Z</time></trkpt>
        <trkpt lat="29.5006471" lon="104.1079244"><ele>388.65</ele><time>2025-12-18T21:46:17.000Z</time></trkpt>
        <trkpt lat="29.5007634" lon="104.1078782"><ele>391.68</ele><time>2025-12-18T21:46:19.000Z</time></trkpt>
        <trkpt lat="29.5008868" lon="104.1078169"><ele>394.06</ele><time>2025-12-18T21:46:21.000Z</time></trkpt>
        <trkpt lat="29.501017" lon="104.1077567"><ele>396.05</ele><time>2025-12-18T21:46:23.000Z</time></trkpt>
        <trkpt lat="29.5011481" lon="104.107725"><ele>397.71</ele><time>2025-12-18T21:46:25.000Z</time></trkpt>
        <trkpt lat="29.5012916" lon="104.1077144"><ele>399.04</ele><time>2025-12-18T21:46:27.000Z</time></trkpt>
        <trkpt lat="29.501448" lon="104.1077243"><ele>400.05</ele><time>2025-12-18T21:46:29.000Z</time></trkpt>
        <trkpt lat="29.5016146" lon="104.1077499"><ele>400.89</ele><time>2025-12-18T21:46:31.000Z</time></trkpt>
        <trkpt lat="29.5017875" lon="104.1077855"><ele>401.67</ele><time>2025-12-18T21:46:33.000Z</time></trkpt>
        <trkpt lat="29.5019678" lon="104.1078002"><ele>402.28</ele><time>2025-12-18T21:46:35.000Z</time></trkpt>
        <trkpt lat="29.5021423" lon="104.1077719"><ele>402.85</ele><time>2025-12-18T21:46:37.000Z</time></trkpt>
        <trkpt lat="29.5023063" lon="104.1077232"><ele>403.26</ele><time>2025-12-18T21:46:39.000Z</time></trkpt>
        <trkpt lat="29.5024575" lon="104.1076833"><ele>403.58</ele><time>2025-12-18T21:46:41.000Z</time></trkpt>
        <trkpt lat="29.502602" lon="104.1076591"><ele>403.8</ele><time>2025-12-18T21:46:43.000Z</time></trkpt>
        <trkpt lat="29.5027412" lon="104.1076452"><ele>404.1</ele><time>2025-12-18T21:46:45.000Z</time></trkpt>
        <trkpt lat="29.5028719" lon="104.107651"><ele>404.23</ele><time>2025-12-18T21:46:47.000Z</time></trkpt>
        <trkpt lat="29.5030065" lon="104.1076681"><ele>404</ele><time>2025-12-18T21:46:49.000Z</time></trkpt>
        <trkpt lat="29.5031471" lon="104.1077017"><ele>403.74</ele><time>2025-12-18T21:46:51.000Z</time></trkpt>
        <trkpt lat="29.5033002" lon="104.1077411"><ele>403.17</ele><time>2025-12-18T21:46:53.000Z</time></trkpt>
        <trkpt lat="29.5034589" lon="104.1077697"><ele>402.1</ele><time>2025-12-18T21:46:55.000Z</time></trkpt>
        <trkpt lat="29.5036227" lon="104.1078032"><ele>400.9</ele><time>2025-12-18T21:46:57.000Z</time></trkpt>
        <trkpt lat="29.50379" lon="104.1078635"><ele>400.08</ele><time>2025-12-18T21:46:59.000Z</time></trkpt>
        <trkpt lat="29.5039505" lon="104.1079721"><ele>399.23</ele><time>2025-12-18T21:47:01.000Z</time></trkpt>
        <trkpt lat="29.5041029" lon="104.1081056"><ele>398.7</ele><time>2025-12-18T21:47:03.000Z</time></trkpt>
        <trkpt lat="29.5042375" lon="104.1082508"><ele>398.06</ele><time>2025-12-18T21:47:05.000Z</time></trkpt>
        <trkpt lat="29.5043271" lon="104.1084134"><ele>397.73</ele><time>2025-12-18T21:47:07.000Z</time></trkpt>
        <trkpt lat="29.5043416" lon="104.108615"><ele>397.8</ele><time>2025-12-18T21:47:09.000Z</time></trkpt>
        <trkpt lat="29.5043003" lon="104.1088275"><ele>398.06</ele><time>2025-12-18T21:47:11.000Z</time></trkpt>
        <trkpt lat="29.5042394" lon="104.1090356"><ele>398.08</ele><time>2025-12-18T21:47:13.000Z</time></trkpt>
        <trkpt lat="29.5041963" lon="104.1092084"><ele>397.7</ele><time>2025-12-18T21:47:15.000Z</time></trkpt>
        <trkpt lat="29.5041953" lon="104.1093536"><ele>397.4</ele><time>2025-12-18T21:47:17.000Z</time></trkpt>
        <trkpt lat="29.5042498" lon="104.1094588"><ele>396.97</ele><time>2025-12-18T21:47:19.000Z</time></trkpt>
        <trkpt lat="29.5043668" lon="104.1095078"><ele>397.58</ele><time>2025-12-18T21:47:21.000Z</time></trkpt>
        <trkpt lat="29.5045366" lon="104.1095096"><ele>398.62</ele><time>2025-12-18T21:47:23.000Z</time></trkpt>
        <trkpt lat="29.5047377" lon="104.109494"><ele>399.43</ele><time>2025-12-18T21:47:25.000Z</time></trkpt>
        <trkpt lat="29.5049419" lon="104.1094935"><ele>400.23</ele><time>2025-12-18T21:47:27.000Z</time></trkpt>
        <trkpt lat="29.5051387" lon="104.1095298"><ele>400.26</ele><time>2025-12-18T21:47:29.000Z</time></trkpt>
        <trkpt lat="29.5053339" lon="104.1095744"><ele>400.11</ele><time>2025-12-18T21:47:31.000Z</time></trkpt>
        <trkpt lat="29.5055374" lon="104.1096093"><ele>399.5</ele><time>2025-12-18T21:47:33.000Z</time></trkpt>
        <trkpt lat="29.505741" lon="104.1096433"><ele>398.3</ele><time>2025-12-18T21:47:35.000Z</time></trkpt>
        <trkpt lat="29.505929" lon="104.1097219"><ele>397.09</ele><time>2025-12-18T21:47:37.000Z</time></trkpt>
        <trkpt lat="29.5060757" lon="104.1098493"><ele>396.41</ele><time>2025-12-18T21:47:39.000Z</time></trkpt>
        <trkpt lat="29.5061968" lon="104.1099897"><ele>396.23</ele><time>2025-12-18T21:47:41.000Z</time></trkpt>
        <trkpt lat="29.5063262" lon="104.1100969"><ele>395.79</ele><time>2025-12-18T21:47:43.000Z</time></trkpt>
        <trkpt lat="29.5064726" lon="104.1101254"><ele>395.62</ele><time>2025-12-18T21:47:45.000Z</time></trkpt>
        <trkpt lat="29.5066414" lon="104.1100816"><ele>395.74</ele><time>2025-12-18T21:47:47.000Z</time></trkpt>
        <trkpt lat="29.5068291" lon="104.1100084"><ele>396.07</ele><time>2025-12-18T21:47:49.000Z</time></trkpt>
        <trkpt lat="29.5070237" lon="104.1099433"><ele>396.17</ele><time>2025-12-18T21:47:51.000Z</time></trkpt>
        <trkpt lat="29.5072113" lon="104.1099337"><ele>395.97</ele><time>2025-12-18T21:47:53.000Z</time></trkpt>
        <trkpt lat="29.5073727" lon="104.1100079"><ele>396.07</ele><time>2025-12-18T21:47:55.000Z</time></trkpt>
        <trkpt lat="29.5074965" lon="104.110171"><ele>396.38</ele><time>2025-12-18T21:47:57.000Z</time></trkpt>
        <trkpt lat="29.5075741" lon="104.1103698"><ele>397.08</ele><time>2025-12-18T21:47:59.000Z</time></trkpt>
        <trkpt lat="29.5076362" lon="104.1105699"><ele>397.69</ele><time>2025-12-18T21:48:01.000Z</time></trkpt>
        <trkpt lat="29.507708" lon="104.1107545"><ele>398.12</ele><time>2025-12-18T21:48:03.000Z</time></trkpt>
        <trkpt lat="29.5078138" lon="104.1109188"><ele>398.33</ele><time>2025-12-18T21:48:05.000Z</time></trkpt>
        <trkpt lat="29.507948" lon="104.1110635"><ele>398.53</ele><time>2025-12-18T21:48:07.000Z</time></trkpt>
        <trkpt lat="29.5080977" lon="104.1111666"><ele>398.52</ele><time>2025-12-18T21:48:09.000Z</time></trkpt>
        <trkpt lat="29.5082457" lon="104.1111933"><ele>398.21</ele><time>2025-12-18T21:48:11.000Z</time></trkpt>
        <trkpt lat="29.5083835" lon="104.1111501"><ele>397.73</ele><time>2025-12-18T21:48:13.000Z</time></trkpt>
        <trkpt lat="29.5085292" lon="104.1110682"><ele>396.9</ele><time>2025-12-18T21:48:15.000Z</time></trkpt>
        <trkpt lat="29.508679" lon="104.1109842"><ele>395.83</ele><time>2025-12-18T21:48:17.000Z</time></trkpt>
        <trkpt lat="29.5088399" lon="104.110919"><ele>394.91</ele><time>2025-12-18T21:48:19.000Z</time></trkpt>
        <trkpt lat="29.5090057" lon="104.1108738"><ele>394.13</ele><time>2025-12-18T21:48:21.000Z</time></trkpt>
        <trkpt lat="29.5091699" lon="104.1108254"><ele>393.17</ele><time>2025-12-18T21:48:23.000Z</time></trkpt>
        <trkpt lat="29.5093403" lon="104.1107624"><ele>392.28</ele><time>2025-12-18T21:48:25.000Z</time></trkpt>
        <trkpt lat="29.5095128" lon="104.1106865"><ele>391.04</ele><time>2025-12-18T21:48:27.000Z</time></trkpt>
        <trkpt lat="29.5096704" lon="104.1105977"><ele>389.3</ele><time>2025-12-18T21:48:29.000Z</time></trkpt>
        <trkpt lat="29.509821" lon="104.1105266"><ele>387.54</ele><time>2025-12-18T21:48:31.000Z</time></trkpt>
        <trkpt lat="29.5099533" lon="104.1105208"><ele>384.85</ele><time>2025-12-18T21:48:33.000Z</time></trkpt>
        <trkpt lat="29.5100522" lon="104.1105999"><ele>382.68</ele><time>2025-12-18T21:48:35.000Z</time></trkpt>
        <trkpt lat="29.5101364" lon="104.1107214"><ele>381.23</ele><time>2025-12-18T21:48:37.000Z</time></trkpt>
        <trkpt lat="29.5102141" lon="104.110858"><ele>379.97</ele><time>2025-12-18T21:48:39.000Z</time></trkpt>
        <trkpt lat="29.5102978" lon="104.1110055"><ele>380.11</ele><time>2025-12-18T21:48:41.000Z</time></trkpt>
        <trkpt lat="29.510389" lon="104.1111443"><ele>380.84</ele><time>2025-12-18T21:48:43.000Z</time></trkpt>
        <trkpt lat="29.5104784" lon="104.1112785"><ele>380.86</ele><time>2025-12-18T21:48:45.000Z</time></trkpt>
        <trkpt lat="29.510577" lon="104.1114138"><ele>381.78</ele><time>2025-12-18T21:48:47.000Z</time></trkpt>
        <trkpt lat="29.510694" lon="104.1115481"><ele>382.95</ele><time>2025-12-18T21:48:49.000Z</time></trkpt>
        <trkpt lat="29.5108235" lon="104.1116755"><ele>384.18</ele><time>2025-12-18T21:48:51.000Z</time></trkpt>
        <trkpt lat="29.5109625" lon="104.1117928"><ele>385.48</ele><time>2025-12-18T21:48:53.000Z</time></trkpt>
        <trkpt lat="29.5111011" lon="104.1119005"><ele>387.29</ele><time>2025-12-18T21:48:55.000Z</time></trkpt>
        <trkpt lat="29.5112321" lon="104.1120093"><ele>388.63</ele><time>2025-12-18T21:48:57.000Z</time></trkpt>
        <trkpt lat="29.5113334" lon="104.1121519"><ele>389.65</ele><time>2025-12-18T21:48:59.000Z</time></trkpt>
        <trkpt lat="29.5114014" lon="104.1123298"><ele>390.4</ele><time>2025-12-18T21:49:01.000Z</time></trkpt>
        <trkpt lat="29.5114914" lon="104.1124989"><ele>391.26</ele><time>2025-12-18T21:49:03.000Z</time></trkpt>
        <trkpt lat="29.5116047" lon="104.1126521"><ele>392.1</ele><time>2025-12-18T21:49:05.000Z</time></trkpt>
        <trkpt lat="29.5116954" lon="104.1128159"><ele>392.74</ele><time>2025-12-18T21:49:07.000Z</time></trkpt>
        <trkpt lat="29.5117555" lon="104.112994"><ele>393.37</ele><time>2025-12-18T21:49:09.000Z</time></trkpt>
        <trkpt lat="29.511825" lon="104.1131543"><ele>394.2</ele><time>2025-12-18T21:49:11.000Z</time></trkpt>
        <trkpt lat="29.5119162" lon="104.1132546"><ele>394.89</ele><time>2025-12-18T21:49:13.000Z</time></trkpt>
        <trkpt lat="29.512041" lon="104.1132257"><ele>395.67</ele><time>2025-12-18T21:49:17.000Z</time></trkpt>
        <trkpt lat="29.5120745" lon="104.1131143"><ele>396.54</ele><time>2025-12-18T21:49:19.000Z</time></trkpt>
        <trkpt lat="29.5120522" lon="104.1129579"><ele>397.13</ele><time>2025-12-18T21:49:21.000Z</time></trkpt>
        <trkpt lat="29.5120334" lon="104.1127906"><ele>397.29</ele><time>2025-12-18T21:49:23.000Z</time></trkpt>
        <trkpt lat="29.5120222" lon="104.1126167"><ele>397.29</ele><time>2025-12-18T21:49:25.000Z</time></trkpt>
        <trkpt lat="29.5120049" lon="104.1124548"><ele>396.65</ele><time>2025-12-18T21:49:27.000Z</time></trkpt>
        <trkpt lat="29.5119839" lon="104.1122964"><ele>395.81</ele><time>2025-12-18T21:49:29.000Z</time></trkpt>
        <trkpt lat="29.5119585" lon="104.1121401"><ele>395.03</ele><time>2025-12-18T21:49:31.000Z</time></trkpt>
        <trkpt lat="29.5119522" lon="104.1119847"><ele>394.12</ele><time>2025-12-18T21:49:33.000Z</time></trkpt>
        <trkpt lat="29.5119873" lon="104.1118397"><ele>392.95</ele><time>2025-12-18T21:49:35.000Z</time></trkpt>
        <trkpt lat="29.5120593" lon="104.1117035"><ele>391.98</ele><time>2025-12-18T21:49:37.000Z</time></trkpt>
        <trkpt lat="29.5121684" lon="104.1115624"><ele>390.53</ele><time>2025-12-18T21:49:39.000Z</time></trkpt>
        <trkpt lat="29.5122964" lon="104.1114312"><ele>388.49</ele><time>2025-12-18T21:49:41.000Z</time></trkpt>
        <trkpt lat="29.5123974" lon="104.111296"><ele>384.62</ele><time>2025-12-18T21:49:43.000Z</time></trkpt>
        <trkpt lat="29.5124316" lon="104.1111424"><ele>380.83</ele><time>2025-12-18T21:49:45.000Z</time></trkpt>
        <trkpt lat="29.51243" lon="104.110982"><ele>378.62</ele><time>2025-12-18T21:49:47.000Z</time></trkpt>
        <trkpt lat="29.5124414" lon="104.1108087"><ele>377.32</ele><time>2025-12-18T21:49:49.000Z</time></trkpt>
        <trkpt lat="29.512489" lon="104.1106342"><ele>376.37</ele><time>2025-12-18T21:49:51.000Z</time></trkpt>
        <trkpt lat="29.5125448" lon="104.1104478"><ele>376.04</ele><time>2025-12-18T21:49:53.000Z</time></trkpt>
        <trkpt lat="29.5126137" lon="104.1102816"><ele>375.12</ele><time>2025-12-18T21:49:55.000Z</time></trkpt>
        <trkpt lat="29.5126888" lon="104.1101475"><ele>374.16</ele><time>2025-12-18T21:49:57.000Z</time></trkpt>
        <trkpt lat="29.5127622" lon="104.1100259"><ele>373.45</ele><time>2025-12-18T21:49:59.000Z</time></trkpt>
        <trkpt lat="29.5128228" lon="104.1099156"><ele>373.08</ele><time>2025-12-18T21:50:01.000Z</time></trkpt>
        <trkpt lat="29.5128769" lon="104.1098213"><ele>373.13</ele><time>2025-12-18T21:50:03.000Z</time></trkpt>
        <trkpt lat="29.5129367" lon="104.1097464"><ele>373.33</ele><time>2025-12-18T21:50:05.000Z</time></trkpt>
        <trkpt lat="29.5130154" lon="104.1096544"><ele>373.62</ele><time>2025-12-18T21:50:09.000Z</time></trkpt>
        <trkpt lat="29.5130384" lon="104.1096229"><ele>374</ele><time>2025-12-18T21:50:11.000Z</time></trkpt>
        <trkpt lat="29.5129767" lon="104.10955"><ele>374.17</ele><time>2025-12-18T21:52:03.000Z</time></trkpt>
        <trkpt lat="29.512935" lon="104.1094467"><ele>373.84</ele><time>2025-12-18T21:52:21.000Z</time></trkpt>
        <trkpt lat="29.5128821" lon="104.1093306"><ele>371.76</ele><time>2025-12-18T21:52:39.000Z</time></trkpt>
        <trkpt lat="29.5128425" lon="104.1092201"><ele>370.18</ele><time>2025-12-18T21:52:53.000Z</time></trkpt>
        <trkpt lat="29.5128147" lon="104.1091087"><ele>368</ele><time>2025-12-18T21:53:05.000Z</time></trkpt>
        <trkpt lat="29.5127958" lon="104.1089957"><ele>366.15</ele><time>2025-12-18T21:53:19.000Z</time></trkpt>
        <trkpt lat="29.5127067" lon="104.1090233"><ele>365.65</ele><time>2025-12-18T21:54:27.000Z</time></trkpt>
        <trkpt lat="29.5127067" lon="104.1090233"><ele>365.65</ele><time>2025-12-18T21:54:41.000Z</time></trkpt>
      </trkseg>
  </trk>
</gpx>